Mascareignes: les résultats sont là

77 min de lecture
Mascareignes 2019
Classement Scratch
Clas.
scratc
Dossard Nom Prénom Sexe Cat. Clas.
cat.
Heure arrivée Temps Ecart / 1er Pays
1 3160 SEVENNEC ALEXIS M SH 1 Ve-10:44:55 07:43:55 00:00:00 France
2 4407 LAURET JEAN-EDDY M M1H 1 Ve-11:03:03 08:02:03 00:18:08 La Réunion
3 4837 JACQUIN ARNAUD M SH 2 Ve-11:07:12 08:06:12 00:22:17 France
4 3928 ZOUBERT EL-HABIB M SH 3 Ve-11:09:40 08:08:40 00:24:45 Mayotte
5 3605 ODULES STEPHANE M M1H 2 Ve-11:20:14 08:19:14 00:35:19 La Réunion
6 3607 BOYER FLORENT M SH 4 Ve-11:39:50 08:38:50 00:54:55 La Réunion
7 3474 FONTAINE ROMAIN M SH 5 Ve-11:57:00 08:56:00 01:12:05 La Réunion
7 3601 FELICITE GILSEY M M1H 3 Ve-11:57:00 08:56:00 01:12:05 La Réunion
9 3453 GARDNER ALISTER M SH 6 Ve-12:00:03 08:59:03 01:15:08 Canada
10 3366 CARRERE ALBERT M SH 7 Ve-12:09:01 09:08:01 01:24:06 Espagne
11 4838 QUILICI ANTHONY M SH 8 Ve-12:12:29 09:11:29 01:27:34 France
12 4829 SOUCIE CLAUDINE F SF 1 Ve-12:14:07 09:13:07 01:29:12 Canada
13 3477 LAURENT FRANCOIS M SH 9 Ve-12:18:44 09:17:44 01:33:49 France
14 4234 ALIX ADRIEN M SH 10 Ve-12:18:59 09:17:59 01:34:04 France
15 4202 DIZ ABAL DANIEL M M1H 4 Ve-12:31:44 09:30:44 01:46:49 Mayotte
16 4213 PLAIRE CEDRIC M SH 11 Ve-12:36:28 09:35:28 01:51:33 La Réunion
17 3765 BASSONVILLE THIERRY M M1H 5 Ve-12:47:39 09:46:39 02:02:44 La Réunion
18 4853 BEGUE HORTENSE F M1F 1 Ve-12:48:39 09:47:39 02:03:44 La Réunion
19 3857 HOAREAU MICHEL-FLORENT M M1H 6 Ve-12:50:01 09:49:01 02:05:06 La Réunion
20 4854 PUY MARCELLE F M1F 2 Ve-12:50:43 09:49:43 02:05:48 La Réunion
21 3238 DURQUE FLORIAN M SH 12 Ve-12:53:06 09:52:06 02:08:11 La Réunion
22 4443 VAUDIN JEROME M M1H 7 Ve-12:55:53 09:54:53 02:10:58 La Réunion
23 3542 TRULES GERALDO M SH 13 Ve-12:57:30 09:56:30 02:12:35 La Réunion
24 3110 BEUGNOT VINCENT M SH 14 Ve-13:02:54 10:01:54 02:17:59 France
25 3038 BOYER YOHAN-JEAN-LAURENT M SH 15 Ve-13:04:29 10:03:29 02:19:34 La Réunion
26 3935 GAZE ARMANDRIC M SH 16 Ve-13:08:01 10:07:01 02:23:06 La Réunion
27 4325 KERBIDI BRUNO M M1H 8 Ve-13:08:48 10:07:48 02:23:53 La Réunion
28 3553 LALLEMAND JAMES M M2H 1 Ve-13:12:53 10:11:53 02:27:58 La Réunion
29 3027 DIJOUX FABIEN M SH 17 Ve-13:13:47 10:12:47 02:28:52 La Réunion
30 4822 PIGNOLET FABRICE M M2H 2 Ve-13:20:30 10:19:30 02:35:35 La Réunion
31 4024 BAUDRON NICOLAS M SH 18 Ve-13:24:55 10:23:55 02:40:00 France
32 3999 LUKEA JEETESH-RAO M SH 19 Ve-13:26:36 10:25:36 02:41:41 Maurice
33 4408 PENNEQUIN NICOLAS M SH 20 Ve-13:26:56 10:25:56 02:42:01 France
34 3482 TOUZE BENJAMIN M SH 21 Ve-13:29:57 10:28:57 02:45:02 France
34 3724 MOISON FABIEN M SH 21 Ve-13:29:57 10:28:57 02:45:02 France
36 4034 ESSOB PATRICK M M1H 9 Ve-13:30:31 10:29:31 02:45:36 La Réunion
37 3200 VELIO PATRICK M M2H 3 Ve-13:32:18 10:31:18 02:47:23 La Réunion
38 4467 IRSAPOULLE VINCENT M SH 23 Ve-13:32:48 10:31:48 02:47:53 La Réunion
39 3979 MAILLOT JIMMY M SH 24 Ve-13:34:04 10:33:04 02:49:09 La Réunion
40 3968 DESILVE LUCAS M ESPH 1 Ve-13:35:46 10:34:46 02:50:51 La Réunion
41 3711 SAUTRON JULIEN M SH 25 Ve-13:36:37 10:35:37 02:51:42 La Réunion
42 3117 SAUVAGE JENNIFER F SF 2 Ve-13:36:56 10:35:56 02:52:01 La Réunion
43 4533 BRULIN JULIA F M1F 3 Ve-13:38:09 10:37:09 02:53:14 La Réunion
44 4328 PICARD SEBASTIEN M M1H 10 Ve-13:39:28 10:38:28 02:54:33 La Réunion
45 4828 MICHAUX HELENE F SF 3 Ve-13:40:55 10:39:55 02:56:00 Canada
46 3788 LENDORMY ARTHUR M SH 26 Ve-13:44:55 10:43:55 03:00:00 La Réunion
47 3288 FONTAINE DANIEL M M2H 4 Ve-13:50:50 10:49:50 03:05:55 La Réunion
48 4037 PINK JEAN-CEDRIC M SH 27 Ve-13:52:42 10:51:42 03:07:47 La Réunion
49 3667 KAUFMANN BENJAMIN M SH 28 Ve-13:53:02 10:52:02 03:08:07 France
50 4281 DALLEAU YOANN-SIMON M SH 29 Ve-13:54:33 10:53:33 03:09:38 La Réunion
51 4385 LACOUDRAY LOIC M SH 30 Ve-13:55:34 10:54:34 03:10:39 La Réunion
52 3656 GUINOISEAU LINDA F M1F 4 Ve-13:55:35 10:54:35 03:10:40 France
53 4237 RAYMONDAUD FABIEN M M1H 11 Ve-13:55:41 10:54:41 03:10:46 La Réunion
54 3207 LABIT SEBASTIEN M SH 31 Ve-13:59:09 10:58:09 03:14:14 France
55 3988 JULIE DOMINIQUE M M1H 12 Ve-14:03:02 11:02:02 03:18:07 La Réunion
56 4025 REVONGE THIERRY M M1H 13 Ve-14:03:27 11:02:27 03:18:32 La Réunion
57 4526 DREINAZA THIERRY M SH 32 Ve-14:04:12 11:03:12 03:19:17 La Réunion
58 4291 RACINNE GERARD M M3H 1 Ve-14:04:17 11:03:17 03:19:22 La Réunion
59 4038 HUBERT JOCELYN M M1H 14 Ve-14:06:00 11:05:00 03:21:05 La Réunion
60 3013 FOURNIER VIRGINIE F SF 4 Ve-14:06:13 11:05:13 03:21:18 France
61 4318 BEGUE CHANTAL F M1F 5 Ve-14:06:48 11:05:48 03:21:53 La Réunion
62 4070 RIVIERE MARCEL M M2H 5 Ve-14:07:54 11:06:54 03:22:59 La Réunion
63 3417 DAMOUR JEROME M SH 33 Ve-14:09:38 11:08:38 03:24:43 France
64 4530 VANWALSCAPPEL JULIEN M SH 34 Ve-14:10:52 11:09:52 03:25:57 La Réunion
65 3480 PASQUIER SYLVAIN M SH 35 Ve-14:13:36 11:12:36 03:28:41 La Réunion
66 3552 DARID JEAN-LOIC-SULLY M M1H 15 Ve-14:14:40 11:13:40 03:29:45 La Réunion
67 4080 BASIC ELIF F SF 5 Ve-14:14:47 11:13:47 03:29:52 Suisse
68 3320 KSOUDA NOAMEN M M1H 16 Ve-14:15:32 11:14:32 03:30:37 France
69 3630 SERAZIN JOSS M SH 36 Ve-14:15:33 11:14:33 03:30:38 La Réunion
70 4250 CHAPELIN RICO M M1H 17 Ve-14:17:41 11:16:41 03:32:46 La Réunion
71 4043 MOELLON DIDIER M SH 37 Ve-14:19:22 11:18:22 03:34:27 La Réunion
72 3063 CHENEDE HUBERT M M1H 18 Ve-14:19:27 11:18:27 03:34:32 La Réunion
73 4415 TESTAN JONATHAN M SH 38 Ve-14:19:29 11:18:29 03:34:34 La Réunion
74 3778 FONTAINE LAURENT M SH 39 Ve-14:20:15 11:19:15 03:35:20 La Réunion
75 4275 BARENCOURT FABRICE M M1H 19 Ve-14:20:16 11:19:16 03:35:21 La Réunion
76 4658 BASTIDA ALBERT MARIA F SF 6 Ve-14:21:32 11:20:32 03:36:37 Espagne
77 3954 VALGRESY LUDWIG M SH 40 Ve-14:21:33 11:20:33 03:36:38 La Réunion
78 3486 SAMSON KEVIN M SH 41 Ve-14:25:13 11:24:13 03:40:18 La Réunion
79 3543 MARCHAND KEVIN M SH 42 Ve-14:25:21 11:24:21 03:40:26 France
80 4233 ALLEMANDET FRANCK M SH 43 Ve-14:25:37 11:24:37 03:40:42 France
81 4337 D ABBADIE AUDE F SF 7 Ve-14:26:21 11:25:21 03:41:26 La Réunion
82 3785 HUGOT MATTHIEU M M1H 20 Ve-14:26:48 11:25:48 03:41:53 La Réunion
83 4276 MAREUX THIERRY M M1H 21 Ve-14:27:15 11:26:15 03:42:20 La Réunion
84 3737 BERTIL ERICSON M SH 44 Ve-14:27:21 11:26:21 03:42:26 La Réunion
85 4049 BETON ERIC-JEAN-FRANCOIS M M1H 22 Ve-14:27:22 11:26:22 03:42:27 La Réunion
86 4397 DIJOUX JEAN-FRANCOIS M M2H 6 Ve-14:27:41 11:26:41 03:42:46 La Réunion
87 4869 VATEL PATRICE M SH 45 Ve-14:28:00 11:27:00 03:43:05 La Réunion
88 3165 HOARAU EDDY M SH 46 Ve-14:28:04 11:27:04 03:43:09 La Réunion
89 3291 LEBON MATHIEU M SH 47 Ve-14:28:08 11:27:08 03:43:13 La Réunion
90 3602 CEBRAND PIERRICK M SH 48 Ve-14:29:26 11:28:26 03:44:31 La Réunion
91 4153 PEIPOCH LISE F SF 8 Ve-14:29:31 11:28:31 03:44:36 La Réunion
92 4032 PHALARIS FREDERIC M M1H 23 Ve-14:30:39 11:29:39 03:45:44 La Réunion
93 3782 HEBERT VINCENT M M1H 24 Ve-14:30:53 11:29:53 03:45:58 La Réunion
94 3376 JOURDAIN PATRICK M M2H 7 Ve-14:32:25 11:31:25 03:47:30 La Réunion
95 3639 FREITAS SIDONIO M M1H 25 Ve-14:34:50 11:33:50 03:49:55 Portugal
96 3425 BREUIL MATHIEU M SH 49 Ve-14:35:22 11:34:22 03:50:27 La Réunion
97 3847 MANIERE MARIE F SF 9 Ve-14:35:35 11:34:35 03:50:40 Maurice
98 3403 LEBRETON CORINNE F M1F 6 Ve-14:35:36 11:34:36 03:50:41 La Réunion
99 3693 PAUL JEAN-MICHEL M SH 50 Ve-14:40:07 11:39:07 03:55:12 La Réunion
100 3929 LOUISE JEAN-MAURICE M M1H 26 Ve-14:40:10 11:39:10 03:55:15 La Réunion
101 3678 LEVENEUR MATTHIEU M SH 51 Ve-14:40:27 11:39:27 03:55:32 La Réunion
102 4517 SEUREAU ROMAIN M SH 52 Ve-14:43:52 11:42:52 03:58:57 La Réunion
103 4516 COLOGNI DIDIER M M2H 8 Ve-14:44:01 11:43:01 03:59:06 La Réunion
104 3722 VANDEWALLE VIRGILE M SH 53 Ve-14:45:17 11:44:17 04:00:22 France
105 4302 THIERRY ABRAHAM M M1H 27 Ve-14:46:51 11:45:51 04:01:56 La Réunion
106 4186 POTHIN MICKAEL M SH 54 Ve-14:49:22 11:48:22 04:04:27 La Réunion
107 4197 CARCANY DEWI-CEDRIC M SH 55 Ve-14:50:11 11:49:11 04:05:16 La Réunion
108 3781 HIVERT PIERRE-ADRIEN M SH 56 Ve-14:51:29 11:50:29 04:06:34 France
108 3873 VIELLIARD MAXENCE M SH 56 Ve-14:51:29 11:50:29 04:06:34 France
110 4018 GIGOI GREGORY M SH 58 Ve-14:52:09 11:51:09 04:07:14 France
111 4355 LAURET JULES-MARC M M2H 9 Ve-14:53:10 11:52:10 04:08:15 La Réunion
111 4372 MARIE-LOUISE GIOVANNI M SH 59 Ve-14:53:10 11:52:10 04:08:15 La Réunion
113 4852 LABOYRIE EMILIE F SF 10 Ve-14:53:36 11:52:36 04:08:41 France
114 3054 GALTIER CHLOE F SF 11 Ve-14:55:09 11:54:09 04:10:14 France
115 4001 BADE BRYAN M SH 60 Ve-14:55:19 11:54:19 04:10:24 La Réunion
116 3755 GONNEAU RAPHAEL M SH 61 Ve-14:58:30 11:57:30 04:13:35 La Réunion
117 4264 HOAREAU JEROME M SH 62 Ve-14:58:47 11:57:47 04:13:52 La Réunion
118 3090 CHEFIARE ETIENNE M M2H 10 Ve-14:58:53 11:57:53 04:13:58 La Réunion
119 3344 LE COZ MARTIN M SH 63 Ve-14:59:41 11:58:41 04:14:46 La Réunion
120 3188 PIERRE ULDERIC M SH 64 Ve-15:00:00 11:59:00 04:15:05 La Réunion
121 3225 FONTANA ARNAUD M M2H 11 Ve-15:00:22 11:59:22 04:15:27 La Réunion
122 3577 RAMAKISTIN KENNY M SH 65 Ve-15:00:30 11:59:30 04:15:35 La Réunion
123 3476 PAYET LUDOVIC M SH 66 Ve-15:02:23 12:01:23 04:17:28 La Réunion
124 4079 PERISSON CHARLES M M1H 28 Ve-15:02:39 12:01:39 04:17:44 La Réunion
125 3894 POUPART FLORE F SF 12 Ve-15:03:16 12:02:16 04:18:21 La Réunion
126 4380 SERVEAUX SAMUEL-JOSELITO M M1H 29 Ve-15:03:36 12:02:36 04:18:41 La Réunion
127 3848 MENDEZ JULIAN M SH 67 Ve-15:05:32 12:04:32 04:20:37 France
128 3559 FUMARD CHARLOTTE F SF 13 Ve-15:05:33 12:04:33 04:20:38 France
129 4141 REOUNE CHRISTIAN M M2H 12 Ve-15:06:06 12:05:06 04:21:11 La Réunion
130 4183 CALTRET JOHNNY M M2H 13 Ve-15:07:13 12:06:13 04:22:18 La Réunion
131 4040 CLAPIER YANNICK M M1H 30 Ve-15:07:15 12:06:15 04:22:20 La Réunion
132 3797 NOURRY THIERRY M SH 68 Ve-15:07:50 12:06:50 04:22:55 La Réunion
133 4262 GONNEAU QUENTIN M ESPH 2 Ve-15:07:56 12:06:56 04:23:01 La Réunion
134 3387 MAIGNAN MANUEL M SH 69 Ve-15:08:28 12:07:28 04:23:33 La Réunion
135 4269 FONTAINE JEREMY M SH 70 Ve-15:08:32 12:07:32 04:23:37 La Réunion
136 3635 FLAMENT MARION F SF 14 Ve-15:08:52 12:07:52 04:23:57 France
137 3024 TECHER JEAN-DENIS M M1H 31 Ve-15:09:03 12:08:03 04:24:08 La Réunion
138 4594 OLIVETTE STEPHANE M SH 71 Ve-15:09:44 12:08:44 04:24:49 La Réunion
139 3992 GHIBAUDO QUENTIN M SH 72 Ve-15:09:46 12:08:46 04:24:51 La Réunion
140 4492 BADANO MATHIEU M SH 73 Ve-15:10:05 12:09:05 04:25:10 La Réunion
141 3695 PAYET PATRICE M SH 74 Ve-15:10:28 12:09:28 04:25:33 La Réunion
142 3479 FONTAINE CEDRIC M SH 75 Ve-15:10:31 12:09:31 04:25:36 La Réunion
143 3640 FUMONDE JEAN-RICO M M1H 32 Ve-15:11:02 12:10:02 04:26:07 La Réunion
144 4482 VAN LEYNSEELE BENJAMIN M SH 76 Ve-15:11:35 12:10:35 04:26:40 France
145 3766 BERTELET NICOLAS M SH 77 Ve-15:12:08 12:11:08 04:27:13 La Réunion
146 4804 ATIDE MAX-DENIS M M1H 33 Ve-15:12:28 12:11:28 04:27:33 La Réunion
147 3325 STÉPHANE DURAND M SH 78 Ve-15:12:52 12:11:52 04:27:57 France
148 3862 LE STUM THOMAS M SH 79 Ve-15:15:01 12:14:01 04:30:06 France
149 3916 RAMIN LAURENT M M1H 34 Ve-15:15:26 12:14:26 04:30:31 La Réunion
150 3883 MUGICA GALLARDO LEIRE F SF 15 Ve-15:15:37 12:14:37 04:30:42 France
151 4538 RAVATE RIAZ M SH 80 Ve-15:16:23 12:15:23 04:31:28 La Réunion
152 3514 SAMSORA FREDERIC M M1H 35 Ve-15:16:26 12:15:26 04:31:31 La Réunion
153 3744 CHOW SHI YEE JEAN-PIERRE M M2H 14 Ve-15:16:28 12:15:28 04:31:33 La Réunion
154 3340 CASSOURROUME MARINA F M1F 7 Ve-15:17:18 12:16:18 04:32:23 France
155 4031 HERN NICOLAS M SH 81 Ve-15:17:56 12:16:56 04:33:01 France
156 4654 GIACOMETTI ESTELLE F SF 16 Ve-15:18:06 12:17:06 04:33:11 France
157 3033 STEPHAN CEDRIC M M1H 36 Ve-15:18:44 12:17:44 04:33:49 La Réunion
158 3520 ZELMAR DOMLNLQUE M M1H 37 Ve-15:19:39 12:18:39 04:34:44 La Réunion
159 3162 CORRE OLIVIER-MIGUEL M SH 82 Ve-15:20:25 12:19:25 04:35:30 La Réunion
160 3182 CHAPUT MARIE F SF 17 Ve-15:21:14 12:20:14 04:36:19 La Réunion
161 4369 BAUDEZ CHRISTOPHE M SH 83 Ve-15:23:16 12:22:16 04:38:21 La Réunion
162 3175 GRONDIN GIANNY M SH 84 Ve-15:23:47 12:22:47 04:38:52 La Réunion
163 3649 GILBOIRE JEAN-YONNIE M SH 85 Ve-15:23:48 12:22:48 04:38:53 La Réunion
164 4870 ROYEAU LAURENT M M1H 38 Ve-15:24:04 12:23:04 04:39:09 La Réunion
165 3378 LAURENCE LUGUY M M1H 39 Ve-15:25:01 12:24:01 04:40:06 La Réunion
165 3909 MOSDINE GUY M SH 86 Ve-15:25:01 12:24:01 04:40:06 La Réunion
167 3287 DROUET MORGAN M SH 87 Ve-15:26:31 12:25:31 04:41:36 France
168 3586 AGENOR FLORENT M SH 88 Ve-15:26:33 12:25:33 04:41:38 La Réunion
169 3206 SORIN SOPHIE F M2F 1 Ve-15:28:01 12:27:01 04:43:06 France
170 4201 DAMBREVILLE FABRICE M M1H 40 Ve-15:30:02 12:29:02 04:45:07 La Réunion
171 3930 GODFRIND REMI M SH 89 Ve-15:30:07 12:29:07 04:45:12 France
172 4107 OROSMANE YANNICK-JEAN-SULLY M SH 90 Ve-15:30:10 12:29:10 04:45:15 La Réunion
173 3790 MAILLOT JOANNY M SH 91 Ve-15:31:00 12:30:00 04:46:05 La Réunion
174 3254 GODELUCK ANAIS F SF 18 Ve-15:31:51 12:30:51 04:46:56 La Réunion
175 4162 LEISER NOAM M SH 92 Ve-15:32:55 12:31:55 04:48:00 Suisse
176 3112 METAYER ARTHUR M SH 93 Ve-15:34:39 12:33:39 04:49:44 La Réunion
177 4073 TALVY LAURENT M M1H 41 Ve-15:34:41 12:33:41 04:49:46 La Réunion
178 3256 KEMPF GUILLAUME M SH 94 Ve-15:36:18 12:35:18 04:51:23 La Réunion
179 3091 RIVIERE JOHNNY-JACQUES M M1H 42 Ve-15:36:19 12:35:19 04:51:24 La Réunion
180 3322 ROCHE ERIC M SH 95 Ve-15:36:23 12:35:23 04:51:28 La Réunion
181 4012 DELAUNAY DIMITRI M SH 96 Ve-15:36:24 12:35:24 04:51:29 La Réunion
182 4042 FONTAINE LIBERA F M1F 8 Ve-15:36:30 12:35:30 04:51:35 La Réunion
183 4117 OULIA JEAN-LAURENT M M1H 43 Ve-15:38:04 12:37:04 04:53:09 La Réunion
184 3346 GEREONE WILLY M SH 97 Ve-15:38:07 12:37:07 04:53:12 La Réunion
185 3624 DEPIGNY YVES M M1H 44 Ve-15:38:33 12:37:33 04:53:38 La Réunion
186 3622 DAMOUR TIMOTHEE M M2H 15 Ve-15:38:43 12:37:43 04:53:48 La Réunion
187 4363 LEFEBVRE THIBAUT M SH 98 Ve-15:39:02 12:38:02 04:54:07 La Réunion
188 3080 LE TELLIER NICOLAS M SH 99 Ve-15:39:56 12:38:56 04:55:01 France
189 3532 BACCO JULIE F SF 19 Ve-15:40:00 12:39:00 04:55:05 La Réunion
190 3224 DIMIER MANON F SF 20 Ve-15:40:45 12:39:45 04:55:50 La Réunion
191 4082 TSIMARIVO BERNARDO M SH 100 Ve-15:40:48 12:39:48 04:55:53 La Réunion
192 4737 PAYET JIMMY M SH 101 Ve-15:40:58 12:39:58 04:56:03 La Réunion
193 3713 SCHOEFFTER LAURE F SF 21 Ve-15:42:45 12:41:45 04:57:50 La Réunion
194 4033 HERBRETEAU ARTHUR M SH 102 Ve-15:43:03 12:42:03 04:58:08 La Réunion
195 4693 MARIE-FRANCOISE JEROME M M1H 45 Ve-15:43:16 12:42:16 04:58:21 La Réunion
196 4199 BERFEUIL MARC M SH 103 Ve-15:43:28 12:42:28 04:58:33 La Réunion
197 4135 LALLEMAND JOHN-ROSS M SH 104 Ve-15:43:31 12:42:31 04:58:36 La Réunion
198 4131 DELETREZ DIMITRI M SH 105 Ve-15:44:34 12:43:34 04:59:39 La Réunion
199 3292 PARADIVIN CHRISTOPHE M SH 106 Ve-15:45:05 12:44:05 05:00:10 La Réunion
200 4317 MAYOT RUDY M SH 107 Ve-15:45:25 12:44:25 05:00:30 La Réunion
201 4171 RAYNAUD THIBAULT M SH 108 Ve-15:47:09 12:46:09 05:02:14 La Réunion
202 3951 PIANEZZE JORIS M SH 109 Ve-15:47:30 12:46:30 05:02:35 La Réunion
203 4052 GRENIER YANNICK M SH 110 Ve-15:48:07 12:47:07 05:03:12 La Réunion
204 4488 ROUCHER MARION F SF 22 Ve-15:48:15 12:47:15 05:03:20 France
205 3094 CHOPINET IDRISS M M1H 46 Ve-15:48:45 12:47:45 05:03:50 La Réunion
206 4016 THIBURCE JOHNNY M SH 111 Ve-15:48:47 12:47:47 05:03:52 La Réunion
207 3503 DUMAS AMANDINE F SF 23 Ve-15:49:27 12:48:27 05:04:32 La Réunion
208 4604 BERTILLE RUDY M SH 112 Ve-15:49:44 12:48:44 05:04:49 La Réunion
209 4588 DEL GRANDE QUENTIN M SH 113 Ve-15:50:04 12:49:04 05:05:09 La Réunion
210 4609 BAPTISTE JOACHIM M SH 114 Ve-15:50:29 12:49:29 05:05:34 La Réunion
211 3021 DAMOUR SEBASTIEN M SH 115 Ve-15:51:13 12:50:13 05:06:18 La Réunion
212 3818 VIRGILIO AUDREY F SF 24 Ve-15:53:16 12:52:16 05:08:21 Suisse
213 4271 AURE JEANNICK M SH 116 Ve-15:54:54 12:53:54 05:09:59 La Réunion
214 4361 GONTRAND JEAN-MICKAEL M M1H 47 Ve-15:55:15 12:54:15 05:10:20 La Réunion
215 4466 DRASIN PASCAL M M1H 48 Ve-15:56:01 12:55:01 05:11:06 La Réunion
216 3670 LAFRAGETTE ARNAUD M SH 117 Ve-15:56:02 12:55:02 05:11:07 France
217 3283 BALOUNAICK MICKAEL M SH 118 Ve-15:56:40 12:55:40 05:11:45 La Réunion
218 3610 BULIN DAVID M M1H 49 Ve-15:57:29 12:56:29 05:12:34 La Réunion
219 4856 GIACOMETTI MARC-ANTOINE M SH 119 Ve-15:57:38 12:56:38 05:12:43 France
220 3354 SAMBENOUN MARCELIN M M2H 16 Ve-15:58:09 12:57:09 05:13:14 La Réunion
221 3426 CAPDEBOSCQ MARIE F M1F 9 Ve-15:58:45 12:57:45 05:13:50 La Réunion
222 4005 FOURNIER ALEXIS M SH 120 Ve-15:59:10 12:58:10 05:14:15 France
223 4836 DUFOUR MARIE-JOSEE F SF 25 Ve-15:59:25 12:58:25 05:14:30 Canada
224 3487 ROUX ANNE-LAURE F SF 26 Ve-15:59:41 12:58:41 05:14:46 France
225 4076 CAVALIERI DAVIDE M M1H 50 Ve-16:00:02 12:59:02 05:15:07 Italie
226 3917 BEDES SEVERINE F M1F 10 Ve-16:00:31 12:59:31 05:15:36 France
227 3153 MUSSARD LUCAS M SH 121 Ve-16:00:48 12:59:48 05:15:53 La Réunion
228 3071 LUCAS FREDERIC M SH 122 Ve-16:01:07 13:00:07 05:16:12 La Réunion
229 4842 ELISABETH GEORGET M M2H 17 Ve-16:01:15 13:00:15 05:16:20 La Réunion
230 3616 CHEVALLIER HUGO M SH 123 Ve-16:01:17 13:00:17 05:16:22 La Réunion
231 4747 WALTER SIMON M SH 124 Ve-16:04:15 13:03:15 05:19:20 France
232 3052 GRIMAUD DOMINIQUE M M1H 51 Ve-16:04:58 13:03:58 05:20:03 La Réunion
233 4242 VAVELIN JEAN-MARC M M2H 18 Ve-16:06:09 13:05:09 05:21:14 La Réunion
234 3840 LALIRON IVANS M SH 125 Ve-16:06:38 13:05:38 05:21:43 La Réunion
235 4128 AUTRET DAVID M SH 126 Ve-16:06:44 13:05:44 05:21:49 Ethiopie
236 4405 FILAIN STEPHANE M M1H 52 Ve-16:08:36 13:07:36 05:23:41 La Réunion
237 4228 CHARRIER MANUEL M SH 127 Ve-16:08:38 13:07:38 05:23:43 La Réunion
238 3187 BOUTIN LAURENT M M1H 53 Ve-16:08:40 13:07:40 05:23:45 La Réunion
239 3794 MEEUS MARIE F SF 27 Ve-16:08:45 13:07:45 05:23:50 La Réunion
240 3608 BRARD RONAN M SH 128 Ve-16:10:07 13:09:07 05:25:12 La Réunion
241 4388 PUYOU MATTHIAS M SH 129 Ve-16:10:09 13:09:09 05:25:14 France
242 3010 DUCHEMIN LOUISE F SF 28 Ve-16:10:40 13:09:40 05:25:45 La Réunion
243 3310 RASCAR BERTRAND M M1H 54 Ve-16:12:40 13:11:40 05:27:45 Mayotte
244 4195 RAMEAUX ANTOINE M SH 130 Ve-16:12:41 13:11:41 05:27:46 La Réunion
244 4630 ANDRE BENJAMIN M SH 130 Ve-16:12:41 13:11:41 05:27:46 La Réunion
246 4476 TALIBART FABIEN M SH 132 Ve-16:13:08 13:12:08 05:28:13 La Réunion
247 4418 KAVCIC JEROME M M1H 55 Ve-16:14:09 13:13:09 05:29:14 France
248 3748 DAMOUR YANNICK M M1H 56 Ve-16:16:33 13:15:33 05:31:38 La Réunion
249 4232 ARAUX ALAIN M M2H 19 Ve-16:16:49 13:15:49 05:31:54 La Réunion
250 4864 LUCAS VALENTIN M SH 133 Ve-16:17:39 13:16:39 05:32:44 France
251 4515 WONG HONG CHEONG FRANCK M SH 134 Ve-16:18:34 13:17:34 05:33:39 La Réunion
252 4265 MAUNIER JEAN-FABRICE M M1H 57 Ve-16:19:14 13:18:14 05:34:19 La Réunion
253 3533 LEBON JEAN-BAPTISTE M M2H 20 Ve-16:19:38 13:18:38 05:34:43 France
254 3723 MEVELEC ERIC M M1H 58 Ve-16:20:06 13:19:06 05:35:11 La Réunion
255 3431 LEBON JONATHAN M SH 135 Ve-16:20:20 13:19:20 05:35:25 La Réunion
256 4173 GIRARDOT MAXIMIN M SH 136 Ve-16:20:52 13:19:52 05:35:57 France
257 3289 FOSSIER MARTIN M SH 137 Ve-16:22:25 13:21:25 05:37:30 La Réunion
258 4400 ANDROGE NATHALIE F M1F 11 Ve-16:22:27 13:21:27 05:37:32 La Réunion
259 3190 LEGRAND PATRICK M M2H 21 Ve-16:22:28 13:21:28 05:37:33 France
260 3124 MICHAUD CAMILLE M SH 138 Ve-16:22:31 13:21:31 05:37:36 La Réunion
260 3159 PAINAYE CEDRIC M M1H 59 Ve-16:22:31 13:21:31 05:37:36 La Réunion
262 3126 CASASEMPERE AITOR M M1H 60 Ve-16:22:53 13:21:53 05:37:58 Espagne
263 4102 FLACONEL LAURENT M M1H 61 Ve-16:22:58 13:21:58 05:38:03 La Réunion
264 4022 HOARAU MICKAEL M SH 139 Ve-16:23:01 13:22:01 05:38:06 La Réunion
265 4556 SAINT-AUBIN CHRISTOPHE M SH 140 Ve-16:23:39 13:22:39 05:38:44 France
266 3939 BOUSSARD GUILLAUME M M1H 62 Ve-16:23:42 13:22:42 05:38:47 La Réunion
267 3131 MARTENS CATHERINE F M1F 12 Ve-16:24:10 13:23:10 05:39:15 Belgique
268 4462 DEURVEILHER LUCINDA F SF 29 Ve-16:24:11 13:23:11 05:39:16 La Réunion
269 3636 FORT MATHIEU M SH 141 Ve-16:25:11 13:24:11 05:40:16 France
269 3683 DELATTRE ETIENNE M M1H 63 Ve-16:25:11 13:24:11 05:40:16 France
271 4624 CENDIER HENRY-PAUL M M1H 64 Ve-16:25:20 13:24:20 05:40:25 La Réunion
272 4470 SARQUET VINCENT M SH 142 Ve-16:25:23 13:24:23 05:40:28 La Réunion
273 3297 THIBAUDEAU NICOLAS M M1H 65 Ve-16:25:29 13:24:29 05:40:34 La Réunion
274 3384 LE TIRANT DIDIER M M2H 22 Ve-16:25:33 13:24:33 05:40:38 La Réunion
275 4088 LOWINSKY JOHAN M SH 143 Ve-16:26:14 13:25:14 05:41:19 La Réunion
276 3411 ROBERT JULIEN M SH 144 Ve-16:26:50 13:25:50 05:41:55 La Réunion
277 3720 THOMAS OLIVIER M SH 145 Ve-16:26:53 13:25:53 05:41:58 France
278 3897 BODILA NDIKI M SH 146 Ve-16:26:54 13:25:54 05:41:59 La Réunion
279 3255 GOFFIN MATHILDE F SF 30 Ve-16:26:55 13:25:55 05:42:00 Belgique
280 3516 HOARAU JEAN-JACQUES M M1H 66 Ve-16:26:57 13:25:57 05:42:02 La Réunion
281 4487 RUGGIERO RENALDO M SH 147 Ve-16:27:00 13:26:00 05:42:05 La Réunion
282 3277 SARAZIN REINY M SH 148 Ve-16:27:20 13:26:20 05:42:25 La Réunion
283 3074 NARAYANIN ROGER-JEAN-SULLY M SH 149 Ve-16:28:26 13:27:26 05:43:31 La Réunion
284 4739 GOMARD JOHN M SH 150 Ve-16:28:31 13:27:31 05:43:36 La Réunion
285 4273 BARENCOURT GALBERT M M1H 67 Ve-16:28:35 13:27:35 05:43:40 La Réunion
286 3408 FASQUEL FRANCOIS M SH 151 Ve-16:28:36 13:27:36 05:43:41 France
286 3934 DURLINS ALEXANDRE M M1H 68 Ve-16:28:36 13:27:36 05:43:41 La Réunion
288 3746 HAMILCARO JEAN-PHILIPPE M M2H 23 Ve-16:29:11 13:28:11 05:44:16 La Réunion
289 3450 ELISABETH JULIEN M SH 152 Ve-16:29:12 13:28:12 05:44:17 La Réunion
290 3447 SEUGE CLEMENT M M1H 69 Ve-16:29:39 13:28:39 05:44:44 France
291 3948 LEPERLIER DAVID M M1H 70 Ve-16:30:12 13:29:12 05:45:17 La Réunion
292 3312 CASIMIR THEVA M SH 153 Ve-16:30:32 13:29:32 05:45:37 La Réunion
293 3569 COULON SAMUEL M SH 154 Ve-16:30:49 13:29:49 05:45:54 La Réunion
294 4714 EL BORGI AMINE M SH 155 Ve-16:31:40 13:30:40 05:46:45 La Réunion
295 3226 LE COQ GURVAN M ESPH 3 Ve-16:32:03 13:31:03 05:47:08 France
296 3349 SECHET SIMON M SH 156 Ve-16:32:44 13:31:44 05:47:49 La Réunion
297 3177 GARNIER HERVE M M2H 24 Ve-16:33:18 13:32:18 05:48:23 France
298 3864 BOYER ALEXANDRE-GINO M M1H 71 Ve-16:33:25 13:32:25 05:48:30 La Réunion
298 4340 HUBERT ALAIN-GEORGES M M2H 25 Ve-16:33:25 13:32:25 05:48:30 La Réunion
300 3989 BERTHIER GUILLAUME M SH 157 Ve-16:33:50 13:32:50 05:48:55 La Réunion
301 3363 BOTTEIN THOMAS M SH 158 Ve-16:33:51 13:32:51 05:48:56 France
302 3805 SANGLA DAMIEN M SH 159 Ve-16:34:04 13:33:04 05:49:09 France
303 3573 LAURET ERICK M M1H 72 Ve-16:34:10 13:33:10 05:49:15 La Réunion
304 3002 FAIN MATHIEU M SH 160 Ve-16:34:11 13:33:11 05:49:16 La Réunion
305 3316 FIGUEROA JULIEN M SH 161 Ve-16:34:24 13:33:24 05:49:29 La Réunion
306 4255 COURTEAUD DAVID M M1H 73 Ve-16:34:47 13:33:47 05:49:52 La Réunion
307 3164 FAIVRE LAETITIA F SF 31 Ve-16:34:52 13:33:52 05:49:57 La Réunion
308 3379 LAURET IDRIS M SH 162 Ve-16:35:12 13:34:12 05:50:17 La Réunion
309 4310 LEVENEUR JACKY M M1H 74 Ve-16:35:17 13:34:17 05:50:22 La Réunion
310 3707 RONGEAT CHRISTOPHER M SH 163 Ve-16:35:21 13:34:21 05:50:26 France
311 4190 SIBY JULIEN M SH 164 Ve-16:36:08 13:35:08 05:51:13 La Réunion
312 3509 ISMAEL ALY M M1H 75 Ve-16:36:40 13:35:40 05:51:45 La Réunion
313 4859 BOUCHARD GUILLAUME M SH 165 Ve-16:36:51 13:35:51 05:51:56 La Réunion
314 3146 BABY JEAN-PHILIPPE M M2H 26 Ve-16:40:23 13:39:23 05:55:28 La Réunion
314 4246 NAGAMA FREDERIC M M2H 26 Ve-16:40:23 13:39:23 05:55:28 La Réunion
316 3006 ROYET AGNES F M1F 13 Ve-16:40:47 13:39:47 05:55:52 La Réunion
317 3017 THIBAULT PIERRE M M1H 76 Ve-16:42:01 13:41:01 05:57:06 La Réunion
318 3661 HOARAU STEPHANIE F M1F 14 Ve-16:42:45 13:41:45 05:57:50 La Réunion
319 3285 ANSEL ALEXIS M SH 166 Ve-16:43:21 13:42:21 05:58:26 La Réunion
320 4713 HOUEL SAMMY M SH 167 Ve-16:45:01 13:44:01 06:00:06 Mayotte
321 4522 GUILHEM-DUCLEON YOANN M SH 168 Ve-16:45:13 13:44:13 06:00:18 La Réunion
321 4717 PUYPE ADELE F SF 32 Ve-16:45:13 13:44:13 06:00:18 La Réunion
323 4631 BAILLY GEOFFREY M SH 169 Ve-16:45:22 13:44:22 06:00:27 La Réunion
324 4353 VENDOMELE JIMMY M M1H 77 Ve-16:45:45 13:44:45 06:00:50 La Réunion
325 3156 BANDRABUR COLINE F SF 33 Ve-16:46:31 13:45:31 06:01:36 La Réunion
326 3844 DUMONT BERNARD M M1H 78 Ve-16:46:49 13:45:49 06:01:54 La Réunion
327 4065 LORENZON FREDERIC M M1H 79 Ve-16:48:08 13:47:08 06:03:13 La Réunion
328 3174 BISHKA YANN M M1H 80 Ve-16:48:18 13:47:18 06:03:23 La Réunion
329 3179 MOGALIA CHAFIQ M SH 170 Ve-16:50:27 13:49:27 06:05:32 La Réunion
330 3232 COSTES BERENICE F SF 34 Ve-16:50:31 13:49:31 06:05:36 La Réunion
331 4063 HOAREAU DIDIER M M1H 81 Ve-16:50:50 13:49:50 06:05:55 La Réunion
332 3754 JIGOREL SEBASTIEN M SH 171 Ve-16:50:51 13:49:51 06:05:56 France
333 4119 LACPATIA THIERRY M SH 172 Ve-16:51:23 13:50:23 06:06:28 La Réunion
334 3197 PERRET JEAN-SEBASTIEN M M1H 82 Ve-16:51:25 13:50:25 06:06:30 La Réunion
335 3380 LAURET JEAN-BERNARD M M2H 28 Ve-16:51:26 13:50:26 06:06:31 La Réunion
336 4013 JACQUEMART MICKAEL M SH 173 Ve-16:51:59 13:50:59 06:07:04 La Réunion
337 3028 BAILLIF DANY M M2H 29 Ve-16:52:01 13:51:01 06:07:06 La Réunion
338 3108 ABELA PIERRE M M1H 83 Ve-16:52:12 13:51:12 06:07:17 La Réunion
339 3558 ELISABETH DAVID M M1H 84 Ve-16:52:26 13:51:26 06:07:31 La Réunion
340 4633 JEANTET ERIC M M2H 30 Ve-16:52:51 13:51:51 06:07:56 La Réunion
341 3168 LEFEBVRE FRANCK M M2H 31 Ve-16:53:17 13:52:17 06:08:22 France
342 3791 MARTIN IVAN M M1H 85 Ve-16:53:54 13:52:54 06:08:59 La Réunion
343 3166 MALET DIDIER M M1H 86 Ve-16:53:55 13:52:55 06:09:00 La Réunion
344 3991 ETHEVE FREDERIC M M1H 87 Ve-16:53:56 13:52:56 06:09:01 La Réunion
345 3843 DROUT ALAIN M M1H 88 Ve-16:54:07 13:53:07 06:09:12 La Réunion
346 3229 LABADIE GUILLAUME M M1H 89 Ve-16:54:19 13:53:19 06:09:24 France
347 3064 CROCQUEVIEILLE AURELIE F SF 35 Ve-16:54:20 13:53:20 06:09:25 France
348 3130 LOPES CARLOS M M1H 90 Ve-16:54:28 13:53:28 06:09:33 La Réunion
349 4116 MASSE MATHIEU M SH 174 Ve-16:56:33 13:55:33 06:11:38 La Réunion
350 3043 MARONE DIOR F SF 36 Ve-16:57:03 13:56:03 06:12:08 La Réunion
351 4483 TURPIN WILLYS M M1H 91 Ve-16:57:04 13:56:04 06:12:09 La Réunion
352 4505 CLUZEL OLIVIER M M2H 32 Ve-16:58:44 13:57:44 06:13:49 La Réunion
353 3032 MONDIA MARIE-INGRID F SF 37 Ve-16:58:59 13:57:59 06:14:04 La Réunion
354 3485 LARDIN NICOLAS M M1H 92 Ve-17:00:27 13:59:27 06:15:32 France
355 4728 CORMONS PHILIPPE M M2H 33 Ve-17:01:17 14:00:17 06:16:22 France
356 4294 ALIZE GEORGES M M3H 2 Ve-17:01:51 14:00:51 06:16:56 La Réunion
357 4204 FILAIN JEREMY M M1H 93 Ve-17:02:13 14:01:13 06:17:18 La Réunion
358 3854 JAVARY SABRINA F SF 38 Ve-17:02:52 14:01:52 06:17:57 La Réunion
359 4169 PERETTI SOPHIE F M1F 15 Ve-17:02:56 14:01:56 06:18:01 France
360 4743 BERNARD JULIEN M SH 175 Ve-17:03:46 14:02:46 06:18:51 La Réunion
361 4184 MOIDEEN TAINA F SF 39 Ve-17:04:37 14:03:37 06:19:42 La Réunion
362 3709 SABATIER ARNAUD M M3H 3 Ve-17:04:40 14:03:40 06:19:45 La Réunion
363 3098 SANSPOIL ANTOINE M M2H 34 Ve-17:06:33 14:05:33 06:21:38 La Réunion
364 4078 TECHER JOHNY-ALAIN M M2H 35 Ve-17:07:53 14:06:53 06:22:58 La Réunion
365 4381 YAN SIN HA YEUNG HARRY M M1H 94 Ve-17:07:57 14:06:57 06:23:02 La Réunion
366 4390 LAVERDURE FREDERIC M M1H 95 Ve-17:07:58 14:06:58 06:23:03 La Réunion
367 3824 TOUCOUERE BERTRAND M M1H 96 Ve-17:09:22 14:08:22 06:24:27 France
367 4035 MICHARDIERE DEREK M SH 176 Ve-17:09:22 14:08:22 06:24:27 France
369 3070 LLORENTE VICTOR M SH 177 Ve-17:09:24 14:08:24 06:24:29 France
370 4806 RASAMIMANANA RAPHAEL M SH 178 Ve-17:09:54 14:08:54 06:24:59 La Réunion
371 4508 ERIMA DIMITRI M SH 179 Ve-17:09:55 14:08:55 06:25:00 La Réunion
372 3756 BILIN MARCEL M M1H 97 Ve-17:10:02 14:09:02 06:25:07 La Réunion
373 4170 RAMARA HENRI-CLAUDE M M1H 98 Ve-17:10:03 14:09:03 06:25:08 France
374 4263 PRUGNIERES CEDRIC M SH 180 Ve-17:10:15 14:09:15 06:25:20 La Réunion
375 4280 GONTHIER LOIC M SH 181 Ve-17:10:18 14:09:18 06:25:23 La Réunion
376 3870 FACONNIER LOIC M SH 182 Ve-17:10:19 14:09:19 06:25:24 La Réunion
377 4473 COURTOIS KEVIN M SH 183 Ve-17:10:20 14:09:20 06:25:25 La Réunion
378 3528 GRONDIN LEONEL M M2H 36 Ve-17:10:56 14:09:56 06:26:01 La Réunion
379 4477 PERRINE MARIE-ODILE F M2F 2 Ve-17:11:00 14:10:00 06:26:05 La Réunion
380 3674 LEFRANC MAURANE F SF 40 Ve-17:11:05 14:10:05 06:26:10 La Réunion
381 3371 FLORENTIN MATHIEU M M1H 99 Ve-17:11:23 14:10:23 06:26:28 La Réunion
382 3269 TRAPATEAU CLEMENT M SH 184 Ve-17:11:26 14:10:26 06:26:31 La Réunion
383 3907 GEDEAS JEAN M M2H 37 Ve-17:11:37 14:10:37 06:26:42 La Réunion
384 4319 LEPERLIER PASCAL M M2H 38 Ve-17:11:43 14:10:43 06:26:48 La Réunion
385 4358 LALANDE GUILHEM M SH 185 Ve-17:12:12 14:11:12 06:27:17 La Réunion
386 4705 TABERE FABIEN M SH 186 Ve-17:12:41 14:11:41 06:27:46 La Réunion
387 4056 BALTHAZARD HUGUES M SH 187 Ve-17:13:39 14:12:39 06:28:44 La Réunion
388 3484 LEGRIGEOIS CLAUDETTE F M3F 1 Ve-17:14:17 14:13:17 06:29:22 La Réunion
389 3210 DUBOIS PIERRE-LOUIS M SH 188 Ve-17:14:29 14:13:29 06:29:34 La Réunion
390 3719 TECHER IVAN M SH 189 Ve-17:14:36 14:13:36 06:29:41 La Réunion
391 3198 POUSSEUR ANTOINE M SH 190 Ve-17:14:48 14:13:48 06:29:53 France
392 3777 FAUSTIN STEPHANE M M1H 100 Ve-17:14:50 14:13:50 06:29:55 La Réunion
393 4124 VIRAPIN INGRID F SF 41 Ve-17:15:29 14:14:29 06:30:34 La Réunion
394 3641 GALANT WILLY M M1H 101 Ve-17:16:24 14:15:24 06:31:29 La Réunion
395 4048 SAUTRON ANTHONY M M1H 102 Ve-17:16:32 14:15:32 06:31:37 La Réunion
396 4458 BASQUAISE JULIEN M SH 191 Ve-17:16:58 14:15:58 06:32:03 La Réunion
397 3899 CORNU MICHAEL M M1H 103 Ve-17:17:01 14:16:01 06:32:06 La Réunion
398 3942 DEMOULIN STEPHANE M SH 192 Ve-17:17:02 14:16:02 06:32:07 La Réunion
399 4814 AURE DAVID-PATRICK M M2H 39 Ve-17:17:03 14:16:03 06:32:08 La Réunion
400 3762 ECLAPIER LUCAY M M1H 104 Ve-17:17:04 14:16:04 06:32:09 La Réunion
401 4115 VITRY FLORENT M SH 193 Ve-17:18:29 14:17:29 06:33:34 France
402 3212 BASQUAISE JEAN-BERNARD M M2H 40 Ve-17:19:08 14:18:08 06:34:13 La Réunion
403 4617 FROGER ARTHUR M SH 194 Ve-17:19:15 14:18:15 06:34:20 La Réunion
404 3609 BUERES SOMOANO DIEGO M SH 195 Ve-17:19:16 14:18:16 06:34:21 La Réunion
405 3393 ORTIZ NICOLAS M SH 196 Ve-17:19:55 14:18:55 06:35:00 La Réunion
406 3775 DELAISSER PATRICIA F M1F 16 Ve-17:20:16 14:19:16 06:35:21 La Réunion
407 4448 FOURDRINIER SYLVIE F M3F 2 Ve-17:22:09 14:21:09 06:37:14 France
408 4727 REMY LAURENT M M1H 105 Ve-17:22:17 14:21:17 06:37:22 France
409 3931 DUBRAS MARIE-LYDIA F M1F 17 Ve-17:23:08 14:22:08 06:38:13 La Réunion
410 3060 SMEYERS GUY M SH 197 Ve-17:23:10 14:22:10 06:38:15 La Réunion
411 3004 RIVIERE SAMUEL-RENE-PAUL M M1H 106 Ve-17:23:23 14:22:23 06:38:28 La Réunion
412 4189 MALLER JEAN-FRANCOIS M SH 198 Ve-17:23:27 14:22:27 06:38:32 La Réunion
413 3819 XAVIER JEAN-SYLVAIN M M2H 41 Ve-17:24:49 14:23:49 06:39:54 La Réunion
414 4111 PITAULT BORIS M M1H 107 Ve-17:24:50 14:23:50 06:39:55 La Réunion
415 4580 NEDELEC VINCENT M SH 199 Ve-17:24:51 14:23:51 06:39:56 La Réunion
416 4209 LECA DOMINIQUE M M2H 42 Ve-17:25:09 14:24:09 06:40:14 La Réunion
417 3745 LEGROS JEAN-FRANCOIS M M3H 4 Ve-17:25:10 14:24:10 06:40:15 La Réunion
418 3329 CHEREL CHRISTELE F M2F 3 Ve-17:25:21 14:24:21 06:40:26 France
419 3041 DELHOUME FLAVIEN M SH 200 Ve-17:25:22 14:24:22 06:40:27 La Réunion
419 4093 BACHELERIE MARION F SF 42 Ve-17:25:22 14:24:22 06:40:27 La Réunion
421 4085 THOMAS WILLY M SH 201 Ve-17:25:48 14:24:48 06:40:53 La Réunion
422 4177 RIVIERE BRUNO M SH 202 Ve-17:25:49 14:24:49 06:40:54 La Réunion
423 3245 MOTAIS DE NARBONNE MAX M M2H 43 Ve-17:25:53 14:24:53 06:40:58 La Réunion
424 3111 MAZOUE LAURENT M SH 203 Ve-17:25:54 14:24:54 06:40:59 France
424 3688 MENEC SOLENE F SF 43 Ve-17:25:54 14:24:54 06:40:59 La Réunion
424 4007 PERMAL GEORGET M M1H 108 Ve-17:25:54 14:24:54 06:40:59 La Réunion
427 3459 LE BELLEGO GUILLAUME M SH 204 Ve-17:26:19 14:25:19 06:41:24 France
428 3458 DOUX FLORIAN M SH 205 Ve-17:26:37 14:25:37 06:41:42 La Réunion
429 3315 DUROCHER VINCENT M SH 206 Ve-17:26:38 14:25:38 06:41:43 La Réunion
430 3838 FRANCOMME DIDIER M M1H 109 Ve-17:27:21 14:26:21 06:42:26 La Réunion
431 3925 ESTIEU KEVIN M SH 207 Ve-17:27:26 14:26:26 06:42:31 La Réunion
432 4214 RUFF NICOLAS M SH 208 Ve-17:28:01 14:27:01 06:43:06 La Réunion
433 4469 GILLES JEAN-PHILIPPE M SH 209 Ve-17:28:10 14:27:10 06:43:15 La Réunion
434 3672 LE GUILLOU BENJAMIN M SH 210 Ve-17:28:29 14:27:29 06:43:34 La Réunion
435 3977 VITRY ANTOINE M SH 211 Ve-17:29:07 14:28:07 06:44:12 La Réunion
436 3276 PAYOT JEROME M M1H 110 Ve-17:29:26 14:28:26 06:44:31 France
437 4099 CHEVALIER OLIVIER M M1H 111 Ve-17:29:47 14:28:47 06:44:52 La Réunion
438 3570 PLANESSE JEAN-SEBASTIEN M SH 212 Ve-17:29:57 14:28:57 06:45:02 La Réunion
439 3625 DIJOUX JAMES M M2H 44 Ve-17:30:02 14:29:02 06:45:07 La Réunion
440 4198 VILLENEUVE NICOLAS M M1H 112 Ve-17:30:11 14:29:11 06:45:16 La Réunion
441 3659 HEUREUDE LUCAS M SH 213 Ve-17:30:35 14:29:35 06:45:40 La Réunion
442 3428 DE BOISVILLIERS LAMBERT M M1H 113 Ve-17:30:54 14:29:54 06:45:59 La Réunion
443 3651 GOSSELIN FLORENT M SH 214 Ve-17:31:06 14:30:06 06:46:11 France
444 3275 PAYET JEROME M SH 215 Ve-17:31:17 14:30:17 06:46:22 La Réunion
445 3338 FONTAINE ALEXANDRE M SH 216 Ve-17:31:28 14:30:28 06:46:33 La Réunion
446 3337 DESRUISSEAUX SANDRA F SF 44 Ve-17:31:29 14:30:29 06:46:34 La Réunion
447 3296 TATEL DIDIER M M1H 114 Ve-17:31:46 14:30:46 06:46:51 La Réunion
448 3712 SAUTRON PIERRICK M SH 217 Ve-17:32:00 14:31:00 06:47:05 La Réunion
449 3911 PAYET GREGORY M SH 218 Ve-17:32:10 14:31:10 06:47:15 La Réunion
450 3699 RABOIS GINA F M2F 4 Ve-17:32:47 14:31:47 06:47:52 La Réunion
451 4086 CONTARIN LEA F SF 45 Ve-17:33:40 14:32:40 06:48:45 La Réunion
452 4151 MERIEL DIDIER M M2H 45 Ve-17:33:49 14:32:49 06:48:54 France
453 3072 MELCHIOR LAURENT M M3H 5 Ve-17:34:05 14:33:05 06:49:10 France
454 4534 PASTERNAK LUCILE F SF 46 Ve-17:34:42 14:33:42 06:49:47 La Réunion
455 4626 GERVAISE DAVID M SH 219 Ve-17:35:11 14:34:11 06:50:16 France
456 4436 HOARAU MATTHIAS M SH 220 Ve-17:36:01 14:35:01 06:51:06 La Réunion
457 3810 TURPIN NICOLAS M SH 221 Ve-17:38:03 14:37:03 06:53:08 La Réunion
458 3348 NEMORIN NICOLAS M M1H 115 Ve-17:38:25 14:37:25 06:53:30 La Réunion
459 3628 DOUYERE BENJAMIN M SH 222 Ve-17:38:51 14:37:51 06:53:56 La Réunion
460 4685 SOREYA GIANNI M M1H 116 Ve-17:41:48 14:40:48 06:56:53 La Réunion
461 3871 DAMOUR STEPHANIE F SF 47 Ve-17:42:30 14:41:30 06:57:35 La Réunion
462 3461 PIAT JEAN-MARIE M M1H 117 Ve-17:42:40 14:41:40 06:57:45 France
463 4366 ETHEVE MARIE-CHANTAL F M2F 5 Ve-17:42:45 14:41:45 06:57:50 La Réunion
464 4019 BOURICE JEROME M SH 223 Ve-17:42:54 14:41:54 06:57:59 La Réunion
465 3831 TOMMASINI ALAIN M M2H 46 Ve-17:43:09 14:42:09 06:58:14 France
466 3142 GUERIN LUDWIG M SH 224 Ve-17:43:13 14:42:13 06:58:18 La Réunion
467 4480 POUDROUX MAX M SH 225 Ve-17:43:40 14:42:40 06:58:45 La Réunion
468 3151 THIBON STEPHANE M SH 226 Ve-17:43:41 14:42:41 06:58:46 France
468 3859 TURPIN ROBERTO M M1H 118 Ve-17:43:41 14:42:41 06:58:46 La Réunion
470 3155 POLEYA JEAN-MARIE M M3H 6 Ve-17:43:43 14:42:43 06:58:48 La Réunion
471 3539 POLEYA CHRISTIAN M M2H 47 Ve-17:45:38 14:44:38 07:00:43 La Réunion
472 3600 BOYE THOMAS M SH 227 Ve-17:45:56 14:44:56 07:01:01 France
473 4583 MARRE DAVID M SH 228 Ve-17:46:16 14:45:16 07:01:21 La Réunion
474 3230 VALENNE LOIC M SH 229 Ve-17:47:08 14:46:08 07:02:13 Belgique
475 4718 ROY DOMINIQUE M M2H 48 Ve-17:47:09 14:46:09 07:02:14 France
476 3888 CONSTANTE JIMMY M M1H 119 Ve-17:47:27 14:46:27 07:02:32 La Réunion
477 4431 PENNEC LUDOVIC M SH 230 Ve-17:47:47 14:46:47 07:02:52 La Réunion
478 4745 PLANTE BAPTISTE M SH 231 Ve-17:48:00 14:47:00 07:03:05 La Réunion
479 3467 RAVAUX ADELINE F SF 48 Ve-17:48:03 14:47:03 07:03:08 La Réunion
479 4010 TOARD JEROME M M1H 120 Ve-17:48:03 14:47:03 07:03:08 La Réunion
481 4336 PAYET BENOIT M M1H 121 Ve-17:48:08 14:47:08 07:03:13 La Réunion
482 3796 MUNHOZ THOMAS M SH 232 Ve-17:48:27 14:47:27 07:03:32 La Réunion
483 4120 BARTE BENOIT M M1H 122 Ve-17:48:54 14:47:54 07:03:59 La Réunion
484 4504 STAMPA PHILIPPE M SH 233 Ve-17:50:42 14:49:42 07:05:47 La Réunion
485 4735 GAUDET JULIEN M SH 234 Ve-17:50:47 14:49:47 07:05:52 La Réunion
486 3612 CALOGINE NICOLAS M SH 235 Ve-17:50:53 14:49:53 07:05:58 La Réunion
487 4460 FELD SYLVAIN M M2H 49 Ve-17:50:56 14:49:56 07:06:01 La Réunion
488 3513 IMIZA KEVIN M SH 236 Ve-17:51:26 14:50:26 07:06:31 La Réunion
489 4386 DOUARIN FREDERIC M M1H 123 Ve-17:51:35 14:50:35 07:06:40 La Réunion
490 4446 BASTIEN LAURENT M M1H 124 Ve-17:51:49 14:50:49 07:06:54 France
491 3022 BERTHELOT FRANCK M M1H 125 Ve-17:51:53 14:50:53 07:06:58 La Réunion
491 3710 SALAH JEAN-ESTELLIO M M2H 50 Ve-17:51:53 14:50:53 07:06:58 La Réunion
493 4161 PARMENTIER BAPTISTE M SH 237 Ve-17:52:28 14:51:28 07:07:33 France
494 4552 CAZAL ULRICH M SH 238 Ve-17:52:35 14:51:35 07:07:40 La Réunion
495 3089 BOUILLET SEBASTIEN-LUCIEN-HERMANN M M1H 126 Ve-17:52:43 14:51:43 07:07:48 La Réunion
496 3990 DANJOU JULIE F SF 49 Ve-17:53:21 14:52:21 07:08:26 La Réunion
497 3388 MAILLOT SEBASTIEN M SH 239 Ve-17:53:22 14:52:22 07:08:27 La Réunion
498 4329 TIMALACOME JEAN-NOEL M M3H 7 Ve-17:53:47 14:52:47 07:08:52 La Réunion
499 3949 MAETZ LAURENT M SH 240 Ve-17:53:52 14:52:52 07:08:57 La Réunion
500 4123 CHANCERELLE MARC-ANTOINE M SH 241 Ve-17:53:53 14:52:53 07:08:58 La Réunion
501 3518 TECHER JUDICAEL M SH 242 Ve-17:53:54 14:52:54 07:08:59 La Réunion
502 3339 ORANGE VINCENT M M2H 51 Ve-17:53:56 14:52:56 07:09:01 La Réunion
503 3524 MAILLOT YANN M SH 243 Ve-17:54:39 14:53:39 07:09:44 La Réunion
504 4801 DUBRAS IDA F SF 50 Ve-17:55:10 14:54:10 07:10:15 La Réunion
505 3912 PRIGENT SEBASTIEN M M1H 127 Ve-17:55:14 14:54:14 07:10:19 La Réunion
506 3599 BOURDAIS ELISE F SF 51 Ve-17:55:46 14:54:46 07:10:51 La Réunion
506 3638 FRANCOMME MATHIAS M SH 244 Ve-17:55:46 14:54:46 07:10:51 La Réunion
508 4159 VICTOIRE FRED M SH 245 Ve-17:56:13 14:55:13 07:11:18 La Réunion
509 3592 BACHE JULIEN-GAEL M SH 246 Ve-17:56:44 14:55:44 07:11:49 La Réunion
510 4240 SIX REMY M SH 247 Ve-17:56:45 14:55:45 07:11:50 La Réunion
511 3913 SAFLA HAMIDOULLA M M1H 128 Ve-17:57:12 14:56:12 07:12:17 La Réunion
512 3898 CARO GILBERT M M2H 52 Ve-17:58:35 14:57:35 07:13:40 La Réunion
513 3414 SPOHR CATHERINE F SF 52 Ve-17:59:58 14:58:58 07:15:03 La Réunion
514 3240 BOUISSIERE XAVIER M SH 248 Ve-18:00:29 14:59:29 07:15:34 La Réunion
515 3065 DUSSARRAT POL-ANTOINE M M1H 129 Ve-18:00:40 14:59:40 07:15:45 La Réunion
516 3427 DAMP JENNIFER F SF 53 Ve-18:02:00 15:01:00 07:17:05 La Réunion
517 4367 DUBOIS BLAISE M M1H 130 Ve-18:03:30 15:02:30 07:18:35 Canada
518 4404 LORBLANCHET THOMAS M SH 249 Ve-18:03:31 15:02:31 07:18:36 France
519 4720 LOUBET RONAN M SH 250 Ve-18:03:33 15:02:33 07:18:38 La Réunion
520 3964 TECHER JOSEPH-JEAN-ALEXIS M M2H 53 Ve-18:04:08 15:03:08 07:19:13 La Réunion
521 4746 MIRANVILLE WILLY M M1H 131 Ve-18:04:31 15:03:31 07:19:36 La Réunion
522 3803 ROBERT URSULA F SF 54 Ve-18:05:09 15:04:09 07:20:14 La Réunion
523 3876 PIOT JEAN-LOUIS M M1H 132 Ve-18:05:21 15:04:21 07:20:26 La Réunion
524 3005 SIMONIN LAURENT M SH 251 Ve-18:05:48 15:04:48 07:20:53 La Réunion
525 3726 MONTEBRUN JORDAN M SH 252 Ve-18:06:24 15:05:24 07:21:29 La Réunion
526 3698 PONGERARD VINCENT M SH 253 Ve-18:08:31 15:07:31 07:23:36 La Réunion
527 3648 GILBERT ANNELISE F SF 55 Ve-18:09:20 15:08:20 07:24:25 La Réunion
527 4004 GAREL VICTOR M SH 254 Ve-18:09:20 15:08:20 07:24:25 France
529 3305 GENTELET THOMAS M M1H 133 Ve-18:09:25 15:08:25 07:24:30 La Réunion
530 3727 MUSSARD ALEXANDRE M SH 255 Ve-18:10:04 15:09:04 07:25:09 La Réunion
531 3023 BASCOU CLEMENT M SH 256 Ve-18:10:18 15:09:18 07:25:23 La Réunion
532 3522 MAZOUTOU RONNIE M M1H 134 Ve-18:10:32 15:09:32 07:25:37 France
533 3116 TORRES DAVID M M1H 135 Ve-18:10:38 15:09:38 07:25:43 France
534 3620 DA SILVA PASCAL M M1H 136 Ve-18:10:39 15:09:39 07:25:44 France
535 3113 NOURRY SEBASTIEN M SH 257 Ve-18:10:42 15:09:42 07:25:47 La Réunion
536 4858 GIGANDET ROGER M M3H 8 Ve-18:10:49 15:09:49 07:25:54 France
537 4863 VANDECASTEELE MAXIME M SH 258 Ve-18:10:57 15:09:57 07:26:02 France
538 3987 BESNARD ROMAIN M SH 259 Ve-18:11:00 15:10:00 07:26:05 La Réunion
539 4191 TECHER LORIANE F SF 56 Ve-18:11:03 15:10:03 07:26:08 La Réunion
540 4208 LEBLANC PRISCILLA F SF 57 Ve-18:12:12 15:11:12 07:27:17 La Réunion
541 4581 NUTTENS FLORIANE F SF 58 Ve-18:13:40 15:12:40 07:28:45 La Réunion
542 3502 SOUBOU RICHELET M M1H 137 Ve-18:13:57 15:12:57 07:29:02 La Réunion
543 3015 PLANTE BRUNO M SH 260 Ve-18:13:59 15:12:59 07:29:04 La Réunion
543 3383 LE LAN EMMANUELLE F SF 59 Ve-18:13:59 15:12:59 07:29:04 France
545 4437 COSTANZO FLORIAN M SH 261 Ve-18:15:31 15:14:31 07:30:36 La Réunion
546 4521 URRUTIBEHETY BENJAMIN M SH 262 Ve-18:15:33 15:14:33 07:30:38 La Réunion
547 3874 WARNANT FLORENT M SH 263 Ve-18:15:36 15:14:36 07:30:41 Belgique
548 4376 BASQUAISE MARIE-SOPHIE F M1F 18 Ve-18:15:38 15:14:38 07:30:43 La Réunion
549 4006 BRUGUET BRUNO M SH 264 Ve-18:16:01 15:15:01 07:31:06 La Réunion
550 4368 ABDOOLALLIAS ASLAM M M1H 138 Ve-18:19:02 15:18:02 07:34:07 La Réunion
551 3761 LEPERLIER SABINE F M1F 19 Ve-18:19:10 15:18:10 07:34:15 La Réunion
552 3985 BOYER FREDERIC M M1H 139 Ve-18:20:48 15:19:48 07:35:53 La Réunion
552 4205 FLACONEL DANIEL M M1H 139 Ve-18:20:48 15:19:48 07:35:53 La Réunion
554 3047 LE GAD MORGANE F SF 60 Ve-18:21:46 15:20:46 07:36:51 France
554 4101 DORSO ARTHUR M SH 265 Ve-18:21:46 15:20:46 07:36:51 France
556 4087 DUCHESNE LAURENCE F M2F 6 Ve-18:22:06 15:21:06 07:37:11 France
557 3597 BOUIS CHRISTOPHE M M1H 141 Ve-18:22:09 15:21:09 07:37:14 France
558 4279 SABABADY JEAN-CLAUDE M M1H 142 Ve-18:22:15 15:21:15 07:37:20 La Réunion
559 4659 GUENIOT BENJAMIN M SH 266 Ve-18:22:18 15:21:18 07:37:23 La Réunion
560 3313 COMBET JEAN-PIERRE M M2H 54 Ve-18:22:21 15:21:21 07:37:26 La Réunion
561 3809 THOMAS RONAN M SH 267 Ve-18:22:24 15:21:24 07:37:29 France
562 3946 LEOCADIE GILLES M M1H 143 Ve-18:23:09 15:22:09 07:38:14 La Réunion
563 3945 LEOCADIE ANGELINA F M1F 20 Ve-18:23:10 15:22:10 07:38:15 La Réunion
564 4174 REYNAUD-PRIOR CHARLOTTE F M1F 21 Ve-18:23:20 15:22:20 07:38:25 France
565 3068 LAURET YVAN M M1H 144 Ve-18:23:38 15:22:38 07:38:43 La Réunion
566 3186 BARANTON FABRICE M M1H 145 Ve-18:24:11 15:23:11 07:39:16 France
567 4268 PHILOGENE PIERRICK M M1H 146 Ve-18:24:12 15:23:12 07:39:17 La Réunion
568 4663 GRANDADAM FLORENT M SH 268 Ve-18:25:53 15:24:53 07:40:58 La Réunion
569 3209 GUENDOUZ CHIR M M1H 147 Ve-18:26:57 15:25:57 07:42:02 La Réunion
570 3830 DOUAUD CAMILLE M SH 269 Ve-18:27:13 15:26:13 07:42:18 La Réunion
571 3127 BARET JOCELYNE F M2F 7 Ve-18:27:37 15:26:37 07:42:42 La Réunion
572 3691 PAILLAT PASCAL M M2H 55 Ve-18:27:47 15:26:47 07:42:52 France
573 4551 CARDIN GUILLAUME M SH 270 Ve-18:28:17 15:27:17 07:43:22 La Réunion
574 4794 HUBERT CHLOE F SF 61 Ve-18:28:18 15:27:18 07:43:23 La Réunion
575 4253 RIMPER ROMUALD M SH 271 Ve-18:28:36 15:27:36 07:43:41 La Réunion
576 3924 DORLA FABRICE M M1H 148 Ve-18:29:10 15:28:10 07:44:15 La Réunion
577 3658 HERRY GERARD M M3H 9 Ve-18:30:50 15:29:50 07:45:55 France
578 3886 SCHELSTRAETE GISELA F SF 62 Ve-18:30:57 15:29:57 07:46:02 La Réunion
579 3852 VILANOU ANNE F M1F 22 Ve-18:31:27 15:30:27 07:46:32 La Réunion
580 4571 TURPIN BRUNO M SH 272 Ve-18:31:42 15:30:42 07:46:47 La Réunion
581 4371 NOE VALENTIN M SH 273 Ve-18:32:37 15:31:37 07:47:42 France
581 4414 MILLOT ROBIN M SH 273 Ve-18:32:37 15:31:37 07:47:42 La Réunion
583 4334 CHEVALIER ARTHUR M SH 275 Ve-18:32:38 15:31:38 07:47:43 La Réunion
584 3865 BEAUVOIS BENOIT M SH 276 Ve-18:32:39 15:31:39 07:47:44 La Réunion
585 3118 BONNISSOL EMMANUEL M M1H 149 Ve-18:33:00 15:32:00 07:48:05 France
586 3742 ALBION DAMIEN M M1H 150 Ve-18:33:12 15:32:12 07:48:17 La Réunion
587 3604 LOPEZ KLAUSS M M1H 151 Ve-18:33:35 15:32:35 07:48:40 La Réunion
588 3921 RAMDANI NACERA F M1F 23 Ve-18:34:03 15:33:03 07:49:08 La Réunion
589 4227 COCA EMMANUELLE F SF 63 Ve-18:34:28 15:33:28 07:49:33 France
590 3973 RAY MANON F SF 64 Ve-18:34:41 15:33:41 07:49:46 La Réunion
591 4574 MENARD SAMUEL M SH 277 Ve-18:34:58 15:33:58 07:50:03 La Réunion
592 3902 DASSY JESSICA F SF 65 Ve-18:35:00 15:34:00 07:50:05 La Réunion
593 4627 DELEURME DAVID M SH 278 Ve-18:35:03 15:34:03 07:50:08 La Réunion
594 3353 LIN CHING TOO DOMINIQUE-JEAN-YVES M M2H 56 Ve-18:35:10 15:34:10 07:50:15 La Réunion
595 4029 CAZAL LAURENT M M1H 152 Ve-18:35:13 15:34:13 07:50:18 La Réunion
595 4758 BODARD LILIAN M SH 279 Ve-18:35:13 15:34:13 07:50:18 La Réunion
597 3549 BERYL FREDERIC M SH 280 Ve-18:35:16 15:34:16 07:50:21 La Réunion
598 3079 BILLOT FREDERIC M M1H 153 Ve-18:36:21 15:35:21 07:51:26 France
599 4106 KENKLE VIRGINIE F M1F 24 Ve-18:36:27 15:35:27 07:51:32 La Réunion
600 3424 PURRER JOHANNA F M2F 8 Ve-18:36:39 15:35:39 07:51:44 Suisse
601 4020 BEAUVAL LUDOVIC M SH 281 Ve-18:37:16 15:36:16 07:52:21 La Réunion
602 3901 DANGLADE FLORENT M SH 282 Ve-18:37:27 15:36:27 07:52:32 La Réunion
603 4568 GERMAIN LOUIS M ESPH 4 Ve-18:37:51 15:36:51 07:52:56 France
603 4569 GERMAIN ERIC M M2H 57 Ve-18:37:51 15:36:51 07:52:56 France
605 3827 MINATCHY GEORGES-MARIE M M2H 58 Ve-18:37:56 15:36:56 07:53:01 La Réunion
606 3660 HOARAU LAURENT M M1H 154 Ve-18:38:02 15:37:02 07:53:07 La Réunion
607 3704 ROBIGEAU BRICE M M1H 155 Ve-18:38:24 15:37:24 07:53:29 France
608 4711 BARET JAMMES M M1H 156 Ve-18:38:38 15:37:38 07:53:43 La Réunion
609 3249 VINCENT NOEL-DOMINIQUE M M2H 59 Ve-18:38:59 15:37:59 07:54:04 La Réunion
610 3892 ZADVAT JOUNAID M SH 283 Ve-18:39:03 15:38:03 07:54:08 La Réunion
611 3250 ZETTOR LAURENT M M1H 157 Ve-18:39:54 15:38:54 07:54:59 La Réunion
612 3511 MAILLY GILLES M M1H 158 Ve-18:39:56 15:38:56 07:55:01 La Réunion
613 3716 SOUSSAN ERIC M SH 284 Ve-18:41:19 15:40:19 07:56:24 La Réunion
614 4768 LE ROUX STEPHANE M M2H 60 Ve-18:42:36 15:41:36 07:57:41 La Réunion
615 4077 LESAGE MARC M M1H 159 Ve-18:43:23 15:42:23 07:58:28 La Réunion
616 4144 VIROT JULIE F SF 66 Ve-18:43:32 15:42:32 07:58:37 La Réunion
617 4831 GERVAIS MARTINE F M1F 25 Ve-18:44:14 15:43:14 07:59:19 Canada
618 3684 FORTIER JEAN M M1H 160 Ve-18:44:15 15:43:15 07:59:20 Canada
619 4352 HOARAU STEPHANE-JULIO M SH 285 Ve-18:44:27 15:43:27 07:59:32 La Réunion
620 3837 FONTAINE MAEVA F SF 67 Ve-18:45:28 15:44:28 08:00:33 La Réunion
621 3279 JOUBERT CECILE F M1F 26 Ve-18:45:39 15:44:39 08:00:44 France
622 4558 CORNEC SOPHIE F M1F 27 Ve-18:45:58 15:44:58 08:01:03 La Réunion
623 3967 FILAIN BRUNO M M1H 161 Ve-18:46:00 15:45:00 08:01:05 La Réunion
624 3975 VAUGHAN HENRY M SH 286 Ve-18:46:10 15:45:10 08:01:15 Irlande
625 4789 ALDEGHERI ARNAUD M SH 287 Ve-18:46:15 15:45:15 08:01:20 France
626 3689 MERCIER DIMITRI M SH 288 Ve-18:46:19 15:45:19 08:01:24 La Réunion
627 4635 LOREAU DIMITRI M SH 289 Ve-18:48:18 15:47:18 08:03:23 La Réunion
628 3169 PITTET CHRISTELLE F M1F 28 Ve-18:48:31 15:47:31 08:03:36 Suisse
629 3211 CHARPILLOZ SARAH F SF 68 Ve-18:48:32 15:47:32 08:03:37 Suisse
630 3507 CADI PAUL M M1H 162 Ve-18:49:40 15:48:40 08:04:45 La Réunion
631 3588 ALI ISMAEL M M1H 163 Ve-18:49:54 15:48:54 08:04:59 Mayotte
632 3933 ANAMMIALO THIERRY M SH 290 Ve-18:50:04 15:49:04 08:05:09 La Réunion
633 3360 SIMON VINCENT M SH 291 Ve-18:50:23 15:49:23 08:05:28 La Réunion
634 3163 HAUCHARD ANTHONY M SH 292 Ve-18:50:44 15:49:44 08:05:49 La Réunion
635 3281 DALLEAU JIMMY M M2H 61 Ve-18:51:24 15:50:24 08:06:29 La Réunion
636 3792 MALGARINI ALICE F SF 69 Ve-18:51:31 15:50:31 08:06:36 La Réunion
637 4622 LARRONDE BENJAMIN M SH 293 Ve-18:53:55 15:52:55 08:09:00 La Réunion
638 4113 LAFUTEUR FABIEN M M2H 62 Ve-18:53:58 15:52:58 08:09:03 La Réunion
639 4428 LACAILLE EXPEDIT M M1H 164 Ve-18:54:14 15:53:14 08:09:19 La Réunion
640 3627 DIVOL MARIE-JUDITH F M1F 29 Ve-18:54:27 15:53:27 08:09:32 La Réunion
641 3144 MUCIG CHARLOTTE F SF 70 Ve-18:55:53 15:54:53 08:10:58 Mayotte
641 3419 GIVERNAUD MARINE F SF 70 Ve-18:55:53 15:54:53 08:10:58 Mayotte
643 3872 GENTRIC ERWANN M SH 294 Ve-18:55:56 15:54:56 08:11:01 La Réunion
644 3508 PREVEL CHARLY M SH 295 Ve-18:55:57 15:54:57 08:11:02 La Réunion
645 4642 JOLLIVET EMILIE F SF 72 Ve-18:56:16 15:55:16 08:11:21 France
646 4772 DELORY SIMON M SH 296 Ve-18:56:26 15:55:26 08:11:31 La Réunion
647 3437 POILPRE FLORIAN M SH 297 Ve-18:56:32 15:55:32 08:11:37 La Réunion
648 3850 SEGRET NICOLAS M SH 298 Ve-18:56:33 15:55:33 08:11:38 La Réunion
649 3793 MARTIN JEROME M SH 299 Ve-18:56:34 15:55:34 08:11:39 Belgique
649 3956 VIRAMA-LATCHOUMY JACKY-CHRISTIAN M M2H 63 Ve-18:56:34 15:55:34 08:11:39 La Réunion
649 4142 SEGHIN VINCENT M M2H 63 Ve-18:56:34 15:55:34 08:11:39 Belgique
652 4235 PORHEL MICHEL M M3H 10 Ve-18:56:37 15:55:37 08:11:42 France
653 4636 WACHTER ANTHONY M SH 300 Ve-18:57:35 15:56:35 08:12:40 La Réunion
654 3705 ROBIN JEAN-PATRICK M M2H 65 Ve-18:58:15 15:57:15 08:13:20 France
655 3358 BARBE ALEXANDRE M SH 301 Ve-18:59:29 15:58:29 08:14:34 La Réunion
656 3192 CORRE FLORENCE F M2F 9 Ve-18:59:36 15:58:36 08:14:41 France
657 3429 DELTEL GERALDINE F M1F 30 Ve-19:00:08 15:59:08 08:15:13 La Réunion
658 3407 BOYER JEAN-LOUIS M M1H 165 Ve-19:00:28 15:59:28 08:15:33 La Réunion
658 3501 MARGUERITE LAURENT M ESPH 5 Ve-19:00:28 15:59:28 08:15:33 La Réunion
660 4377 BRUNET CHRISTOPHE M M1H 166 Ve-19:01:45 16:00:45 08:16:50 La Réunion
661 4395 VERON GILDAS M M1H 167 Ve-19:02:47 16:01:47 08:17:52 La Réunion
662 3034 ROUSSEL AUGUSTIN M SH 302 Ve-19:03:15 16:02:15 08:18:20 La Réunion
663 4145 GOURDON FABIEN M SH 303 Ve-19:04:07 16:03:07 08:19:12 La Réunion
664 4121 JEANNIC ERWAN M SH 304 Ve-19:04:14 16:03:14 08:19:19 La Réunion
665 3536 TORNEY THOMAS M SH 305 Ve-19:04:21 16:03:21 08:19:26 La Réunion
666 3073 MOMEUX STEPHANE M SH 306 Ve-19:04:23 16:03:23 08:19:28 France
667 4656 GILBOIRE FABRICE M M1H 168 Ve-19:05:46 16:04:46 08:20:51 La Réunion
668 4544 ORUS CHRISLAIN M SH 307 Ve-19:05:47 16:04:47 08:20:52 La Réunion
669 3270 TURPIN ELODIE F SF 73 Ve-19:06:22 16:05:22 08:21:27 La Réunion
670 3454 REGUERRE YVES M M2H 66 Ve-19:06:46 16:05:46 08:21:51 La Réunion
671 3914 VIRASSAMY VALLY LUDERX M M2H 67 Ve-19:07:40 16:06:40 08:22:45 La Réunion
672 4157 COMBET MYRIAM F M2F 10 Ve-19:09:38 16:08:38 08:24:43 France
673 3069 LEBARBIER SEBASTIEN M M1H 169 Ve-19:09:42 16:08:42 08:24:47 France
674 4009 UYTTENHOVE YANN M SH 308 Ve-19:09:43 16:08:43 08:24:48 La Réunion
675 3881 JUNOT JEAN-CHRISTOPHE M M1H 170 Ve-19:09:46 16:08:46 08:24:51 La Réunion
676 4179 VAR MATHIEU M SH 309 Ve-19:10:35 16:09:35 08:25:40 La Réunion
677 3262 ELISABETH MIGUEL M M1H 171 Ve-19:10:43 16:09:43 08:25:48 La Réunion
678 4425 GEVIA DANIEL M M2H 68 Ve-19:10:44 16:09:44 08:25:49 La Réunion
679 3650 GOBE AURELIEN M SH 310 Ve-19:11:17 16:10:17 08:26:22 France
680 3880 WILLY GRONDIN M M1H 172 Ve-19:11:21 16:10:21 08:26:26 La Réunion
681 3441 LAGOURGUE DAVID M M1H 173 Ve-19:11:57 16:10:57 08:27:02 La Réunion
681 3662 HOAREAU CYRIL M M1H 173 Ve-19:11:57 16:10:57 08:27:02 La Réunion
683 3595 BIGLIA JEAN-MICHEL M M3H 11 Ve-19:12:00 16:11:00 08:27:05 France
684 3576 LASSARA JEAN-MARC M M2H 69 Ve-19:12:05 16:11:05 08:27:10 France
685 4615 GINOT NICOLAS M ESPH 6 Ve-19:12:34 16:11:34 08:27:39 France
686 3302 BILLAUD WILSON M M1H 175 Ve-19:13:57 16:12:57 08:29:02 La Réunion
687 4835 PROTIN LUCAS M SH 311 Ve-19:14:25 16:13:25 08:29:30 La Réunion
688 4091 ALI SAID AMINA F SF 74 Ve-19:14:31 16:13:31 08:29:36 La Réunion
689 3927 RAJA NABIL M SH 312 Ve-19:14:33 16:13:33 08:29:38 La Réunion
690 3194 GRONDIN MURIEL F SF 75 Ve-19:15:27 16:14:27 08:30:32 La Réunion
690 3780 GRONDIN LUDOVIC M M1H 176 Ve-19:15:27 16:14:27 08:30:32 La Réunion
692 3463 HAMON STEPHANE M M1H 177 Ve-19:15:33 16:14:33 08:30:38 La Réunion
693 4110 VENDOMELE LOIC M SH 313 Ve-19:15:34 16:14:34 08:30:39 La Réunion
694 3336 TONDRE LUC M M1H 178 Ve-19:15:36 16:14:36 08:30:41 France
695 3623 DARDET BERNARD M M3H 12 Ve-19:15:55 16:14:55 08:31:00 France
696 4274 LUCAS ROMAIN M SH 314 Ve-19:16:02 16:15:02 08:31:07 La Réunion
697 4053 PATEL SALIM M SH 315 Ve-19:16:20 16:15:20 08:31:25 La Réunion
698 3654 GRONDIN SEBASTIEN M SH 316 Ve-19:18:16 16:17:16 08:33:21 La Réunion
699 3129 LEBON SAMUEL M SH 317 Ve-19:18:25 16:17:25 08:33:30 La Réunion
700 3903 DOREAU EMMANUEL M SH 318 Ve-19:18:40 16:17:40 08:33:45 La Réunion
701 3575 GIRON VALENTIN M SH 319 Ve-19:18:45 16:17:45 08:33:50 La Réunion
702 3432 LIBERT MARIE F SF 76 Ve-19:18:52 16:17:52 08:33:57 La Réunion
702 4634 GIRAULT VALENTIN M SH 320 Ve-19:18:52 16:17:52 08:33:57 France
704 3307 MARCHAND FREDERIC M M1H 179 Ve-19:18:54 16:17:54 08:33:59 La Réunion
704 4498 LAI ONG TEUNG ALEXANDRE M SH 321 Ve-19:18:54 16:17:54 08:33:59 La Réunion
706 4640 DUVERGER ALICE F SF 77 Ve-19:18:55 16:17:55 08:34:00 La Réunion
706 4673 BROCHET LAURA F SF 77 Ve-19:18:55 16:17:55 08:34:00 La Réunion
708 3629 DROUHET DENIS M M2H 70 Ve-19:18:58 16:17:58 08:34:03 La Réunion
709 3140 DORIS CHRISTIAN M M3H 13 Ve-19:22:12 16:21:12 08:37:17 La Réunion
710 3527 MOUNIAMA ERIC-RAYMOND M M1H 180 Ve-19:22:28 16:21:28 08:37:33 La Réunion
711 3515 BARRET JEAN-FABRICE-URBAIN M M1H 181 Ve-19:23:28 16:22:28 08:38:33 La Réunion
712 3081 RIVIERE YOHAN M SH 322 Ve-19:23:35 16:22:35 08:38:40 La Réunion
713 3969 AUGUSTINE JEAN-RICHEL M SH 323 Ve-19:24:04 16:23:04 08:39:09 La Réunion
714 4805 THOMAS GINO M SH 324 Ve-19:24:05 16:23:05 08:39:10 La Réunion
715 4289 THEVENOUD JEAN-NOEL M M2H 71 Ve-19:24:27 16:23:27 08:39:32 France
716 3494 VELNA JEAN-DANY M M2H 72 Ve-19:24:47 16:23:47 08:39:52 La Réunion
717 4621 HOARAU MIKAEL-FREDERIC M M1H 182 Ve-19:24:50 16:23:50 08:39:55 La Réunion
718 3066 FURIA ROMAIN M SH 325 Ve-19:25:07 16:24:07 08:40:12 La Réunion
719 4500 PAYET ESTEBAN M SH 326 Ve-19:25:08 16:24:08 08:40:13 La Réunion
719 4788 ROCHEFEUILLE KEVIN M SH 326 Ve-19:25:08 16:24:08 08:40:13 La Réunion
721 3574 MAILLOT DANIEL M M2H 73 Ve-19:25:09 16:24:09 08:40:14 La Réunion
722 4843 FONTAINE ANTOINE M M2H 74 Ve-19:25:28 16:24:28 08:40:33 La Réunion
723 3433 MONNIER RONALD M M1H 183 Ve-19:26:05 16:25:05 08:41:10 France
724 3351 DILLAC FRANCOIS M M1H 184 Ve-19:26:36 16:25:36 08:41:41 La Réunion
725 4610 GINOT AYMERIC M SH 328 Ve-19:26:43 16:25:43 08:41:48 France
726 3816 VIENNE SAMUEL M SH 329 Ve-19:27:52 16:26:52 08:42:57 La Réunion
727 4298 ICHANE JEAN-LUC M M3H 14 Ve-19:28:07 16:27:07 08:43:12 La Réunion
728 3105 MOMBERT VANESSA F SF 79 Ve-19:28:08 16:27:08 08:43:13 La Réunion
729 4587 PICARD LAURENT M M1H 185 Ve-19:28:25 16:27:25 08:43:30 France
730 3828 PLANTE DAVID M M1H 186 Ve-19:28:27 16:27:27 08:43:32 La Réunion
731 3026 RITONDALE MELANIE F M1F 31 Ve-19:28:42 16:27:42 08:43:47 France
732 3035 SAMOUILHAN KARINE F M1F 32 Ve-19:29:09 16:28:09 08:44:14 Maurice
733 4478 DEBUISSON BENJAMIN M SH 330 Ve-19:29:10 16:28:10 08:44:15 France
734 3468 BONGARZONE PAULIN M SH 331 Ve-19:30:16 16:29:16 08:45:21 La Réunion
735 4104 GOUJON MARGAUX F SF 80 Ve-19:30:17 16:29:17 08:45:22 La Réunion
736 3133 VLODY ERIC M SH 332 Ve-19:30:20 16:29:20 08:45:25 La Réunion
737 3037 LEPINAY MATHIEU M SH 333 Ve-19:31:23 16:30:23 08:46:28 La Réunion
738 3753 GERVILLE JEAN-BERNARD M SH 334 Ve-19:31:41 16:30:41 08:46:46 La Réunion
739 4486 TAJCNAR TOMAS M SH 335 Ve-19:31:48 16:30:48 08:46:53 Slovaquie
740 4578 LORMEL CARL M M1H 187 Ve-19:32:48 16:31:48 08:47:53 France
741 4221 LEBIGOT JEROME M M2H 75 Ve-19:33:11 16:32:11 08:48:16 France
742 4850 CHARBONNIER -CHOPIN MARIE-JULIE F SF 81 Ve-19:33:14 16:32:14 08:48:19 La Réunion
743 4176 DOINEAU PHILIPPE M M2H 76 Ve-19:33:43 16:32:43 08:48:48 La Réunion
744 3856 MAYER CEDRIC M SH 336 Ve-19:34:35 16:33:35 08:49:40 La Réunion
745 3526 FUTOL SAMUEL-JEAN-STEPHANE M M1H 188 Ve-19:34:45 16:33:45 08:49:50 La Réunion
746 3687 NATIVEL FREDERIC M M1H 189 Ve-19:34:59 16:33:59 08:50:04 La Réunion
747 3767 BERTRAND OURS-JOSEPH M M2H 77 Ve-19:35:00 16:34:00 08:50:05 France
748 4172 REHULKA CAROLINE F M1F 33 Ve-19:35:55 16:34:55 08:51:00 France
749 4733 LE GRUIEC ANGELINE F SF 82 Ve-19:35:56 16:34:56 08:51:01 La Réunion
750 3139 AVRIL OLIVIER M SH 337 Ve-19:36:51 16:35:51 08:51:56 La Réunion
751 3786 LAO-YEC JULIEN M SH 338 Ve-19:37:36 16:36:36 08:52:41 La Réunion
752 3284 CAILASSON JEAN-ERIC M SH 339 Ve-19:38:00 16:37:00 08:53:05 La Réunion
753 4769 SAMY CEDRIC M ESPH 7 Ve-19:38:01 16:37:01 08:53:06 La Réunion
754 4797 LECOMTE ALEXANDRE M SH 340 Ve-19:38:08 16:37:08 08:53:13 La Réunion
755 3789 LENDORMY PHILIPPE M M2H 78 Ve-19:38:11 16:37:11 08:53:16 France
756 3971 POUPPEVILLE CEDRIC M SH 341 Ve-19:38:17 16:37:17 08:53:22 La Réunion
757 3341 MONNIER GABRIEL M SH 342 Ve-19:38:41 16:37:41 08:53:46 France
758 4292 GRONDIN GERARD M M2H 79 Ve-19:38:44 16:37:44 08:53:49 La Réunion
759 3205 METZ THOMAS M M1H 190 Ve-19:38:45 16:37:45 08:53:50 La Réunion
759 3941 CUSSAC MAUD F M1F 34 Ve-19:38:45 16:37:45 08:53:50 La Réunion
761 3092 HUET LOUIS M M2H 80 Ve-19:38:49 16:37:49 08:53:54 La Réunion
762 3053 LOISEAU MICKAEL M M1H 191 Ve-19:38:52 16:37:52 08:53:57 France
763 3048 GAUTHIER ADRIEN M M1H 192 Ve-19:38:59 16:37:59 08:54:04 La Réunion
764 3149 CHAPELIER JUSTINE F SF 83 Ve-19:39:04 16:38:04 08:54:09 France
765 4046 FAUBOURG SAMERY M SH 343 Ve-19:39:15 16:38:15 08:54:20 La Réunion
766 4241 THOMAS OLIVIER M SH 344 Ve-19:39:43 16:38:43 08:54:48 La Réunion
767 3769 BLARD BEATRICE F M1F 35 Ve-19:39:46 16:38:46 08:54:51 La Réunion
768 4793 GUTHGUNST MAUI M SH 345 Ve-19:40:31 16:39:31 08:55:36 La Réunion
769 3718 TANTALE OLIVIER M SH 346 Ve-19:40:39 16:39:39 08:55:44 La Réunion
770 4137 LAURET LUDOVIC M SH 347 Ve-19:40:42 16:39:42 08:55:47 La Réunion
771 4704 WAHANIN DAMIEN M M1H 193 Ve-19:41:02 16:40:02 08:56:07 La Réunion
772 3272 ARTHUR NINA F SF 84 Ve-19:41:10 16:40:10 08:56:15 La Réunion
772 4848 GOSSARD LOUIS-RICO M M2H 81 Ve-19:41:10 16:40:10 08:56:15 La Réunion
774 4535 COLIN YVES M SH 348 Ve-19:41:11 16:40:11 08:56:16 La Réunion
775 4629 FOUSSARD ETIENNE M SH 349 Ve-19:41:32 16:40:32 08:56:37 La Réunion
776 4457 MIRAVOUTIN MICKAEL M SH 350 Ve-19:41:35 16:40:35 08:56:40 La Réunion
777 3055 SUTTER PATRICE M M2H 82 Ve-19:41:38 16:40:38 08:56:43 La Réunion
778 4807 SAINT-ALME MEMONA F SF 85 Ve-19:41:39 16:40:39 08:56:44 La Réunion
779 4127 PRIANON DENIS M M2H 83 Ve-19:41:50 16:40:50 08:56:55 La Réunion
780 4055 LE MAUFF MELANIE F SF 86 Ve-19:41:54 16:40:54 08:56:59 La Réunion
781 4463 MORILLE DAVID M SH 351 Ve-19:42:18 16:41:18 08:57:23 La Réunion
782 3680 MAATOUK MEHDI M SH 352 Ve-19:42:20 16:41:20 08:57:25 La Réunion
782 4648 BONNET ROMAIN M SH 352 Ve-19:42:20 16:41:20 08:57:25 La Réunion
784 4416 LOGORAS WILLIAM M M2H 84 Ve-19:42:21 16:41:21 08:57:26 La Réunion
785 3158 LABBE RAPHAEL M SH 354 Ve-19:42:26 16:41:26 08:57:31 La Réunion
786 4114 GRAVIER WILLY M SH 355 Ve-19:43:28 16:42:28 08:58:33 La Réunion
787 3823 SAHRAOUI ABDEL M SH 356 Ve-19:44:24 16:43:24 08:59:29 France
787 4050 AUJOULAT THOMAS M SH 356 Ve-19:44:24 16:43:24 08:59:29 La Réunion
789 3926 POQUET EMILIEN M SH 358 Ve-19:44:25 16:43:25 08:59:30 La Réunion
790 4180 PIVIDORI CINDY F SF 87 Ve-19:45:31 16:44:31 09:00:36 La Réunion
791 4130 CUESTA DAVID M SH 359 Ve-19:45:32 16:44:32 09:00:37 La Réunion
792 3773 CHOPRA HOUNED M M1H 194 Ve-19:46:41 16:45:41 09:01:46 La Réunion
793 4324 LAURET DANY M M1H 195 Ve-19:46:48 16:45:48 09:01:53 La Réunion
794 3568 PAYET ALEXANDRE M SH 360 Ve-19:46:49 16:45:49 09:01:54 La Réunion
795 3896 AUTRAND GREGORY M M1H 196 Ve-19:47:50 16:46:50 09:02:55 La Réunion
796 3728 NAGUIN DAVID M SH 361 Ve-19:48:04 16:47:04 09:03:09 La Réunion
797 3849 PLAGNOL OLIVIER M M2H 85 Ve-19:48:05 16:47:05 09:03:10 La Réunion
798 3040 CUFFFIT CEDRIC M M1H 197 Ve-19:48:28 16:47:28 09:03:33 La Réunion
799 3303 CANTUEL KEVIN M SH 362 Ve-19:48:37 16:47:37 09:03:42 Guyane Française
800 3039 COLAS DES FRANCS HELENE F SF 88 Ve-19:48:53 16:47:53 09:03:58 La Réunion
801 3237 LAIBE IVANE M M2H 86 Ve-19:48:59 16:47:59 09:04:04 La Réunion
802 3702 RIOT ALICE F SF 89 Ve-19:49:04 16:48:04 09:04:09 La Réunion
803 4645 BODZEN ERIC M SH 363 Ve-19:49:35 16:48:35 09:04:40 La Réunion
804 3215 LEBON THIERRY M M1H 198 Ve-19:49:42 16:48:42 09:04:47 La Réunion
805 3677 LESUEUR ANTOINE M SH 364 Ve-19:49:53 16:48:53 09:04:58 France
806 3779 FREZOULS MICHEL M M3H 15 Ve-19:50:00 16:49:00 09:05:05 France
807 3381 LE GAL FRANCK M M1H 199 Ve-19:50:15 16:49:15 09:05:20 La Réunion
808 3556 CHAUVOT GAELLE F SF 90 Ve-19:51:35 16:50:35 09:06:40 France
809 3730 FOURNIER ALICE F SF 91 Ve-19:53:34 16:52:34 09:08:39 France
810 4537 CARIAN MONIQUE F M2F 11 Ve-19:55:33 16:54:33 09:10:38 La Réunion
811 3352 GALAIS MARIE-CLAUDE F M2F 12 Ve-19:55:45 16:54:45 09:10:50 La Réunion
812 3496 DION BRIAG M SH 365 Ve-19:56:11 16:55:11 09:11:16 La Réunion
813 3534 MOALIC ANNE F M1F 36 Ve-19:56:18 16:55:18 09:11:23 France
814 3772 CASTILLE ANNE-SOPHIE F SF 92 Ve-19:56:26 16:55:26 09:11:31 France
815 3752 BELLUNE JEAN-STEPHANE M SH 366 Ve-19:56:55 16:55:55 09:12:00 La Réunion
816 4252 MAHE ERIC-JULES M M2H 87 Ve-19:57:39 16:56:39 09:12:44 La Réunion
817 4591 TURPIN PAUL-TONY M SH 367 Ve-19:58:12 16:57:12 09:13:17 La Réunion
818 3483 DECHAMPS FRANCK M M1H 200 Ve-19:58:21 16:57:21 09:13:26 La Réunion
819 3219 MULLER BARBARA F SF 93 Ve-19:58:39 16:57:39 09:13:44 La Réunion
820 3233 CERISAY FLORENT M SH 368 Ve-19:58:52 16:57:52 09:13:57 France
821 3882 HERMARY ANTHONY M SH 369 Ve-19:59:07 16:58:07 09:14:12 La Réunion
822 4832 HOGAN MARIANNE F SF 94 Ve-19:59:30 16:58:30 09:14:35 Canada
823 4167 LAMONGE TONY M SH 370 Ve-19:59:47 16:58:47 09:14:52 La Réunion
824 3618 CORNEILLE PIERRE-ALEXANDRE M SH 371 Ve-20:00:21 16:59:21 09:15:26 La Réunion
825 4068 MOUDEN GILLES M M2H 88 Ve-20:00:31 16:59:31 09:15:36 La Réunion
826 4075 VIANNAY MARINE F SF 95 Ve-20:01:28 17:00:28 09:16:33 La Réunion
827 4164 BAILLIF VIRGINIE F SF 96 Ve-20:01:36 17:00:36 09:16:41 La Réunion
828 3708 ROUANET CECILE F SF 97 Ve-20:01:45 17:00:45 09:16:50 La Réunion
829 4650 THIERRY QUENTIN M SH 372 Ve-20:01:48 17:00:48 09:16:53 France
830 3282 DIJOUX JIMMY-CHARLE-ANDRE M SH 373 Ve-20:02:19 17:01:19 09:17:24 La Réunion
831 3845 GROSSET DAVID M M1H 201 Ve-20:03:17 17:02:17 09:18:22 La Réunion
832 4826 IBRAHIM AHMED M SH 374 Ve-20:04:22 17:03:22 09:19:27 Comores
833 3234 MOUCAZAMBO JEREMIE M SH 375 Ve-20:04:24 17:03:24 09:19:29 La Réunion
834 3893 PLATIER CHRISTOPHE M M2H 89 Ve-20:04:56 17:03:56 09:20:01 La Réunion
835 4860 BOTTANA CARLO M M1H 202 Ve-20:05:20 17:04:20 09:20:25 France
836 3714 SERY BERTRAND M SH 376 Ve-20:05:22 17:04:22 09:20:27 La Réunion
837 4619 DEBORD JULIEN M SH 377 Ve-20:06:33 17:05:33 09:21:38 La Réunion
838 3412 VALMY ANNE-GAELLE F SF 98 Ve-20:07:53 17:06:53 09:22:58 Canada
839 3869 TURPIN SOREYA F M1F 37 Ve-20:08:19 17:07:19 09:23:24 La Réunion
840 3145 LAPINSONNIERE GILLES M SH 378 Ve-20:08:56 17:07:56 09:24:01 La Réunion
841 4723 BOUNEA ELEN F M1F 38 Ve-20:09:11 17:08:11 09:24:16 La Réunion
842 3974 VITY JEREMY M SH 379 Ve-20:09:14 17:08:14 09:24:19 La Réunion
843 3355 OULIA MIMOSE F M2F 13 Ve-20:09:42 17:08:42 09:24:47 La Réunion
843 3763 GOURCEAUX STEPHANE M M2H 90 Ve-20:09:42 17:08:42 09:24:47 La Réunion
845 3686 GARCIN NADEGE F M2F 14 Ve-20:10:18 17:09:18 09:25:23 France
846 4519 CONTERIO SEBASTIEN M M1H 203 Ve-20:10:19 17:09:19 09:25:24 La Réunion
847 3241 BRONSARD SOAZIG F M1F 39 Ve-20:10:20 17:09:20 09:25:25 La Réunion
847 3280 LAFON CORINNE F M1F 39 Ve-20:10:20 17:09:20 09:25:25 La Réunion
849 4030 HOARAU JEROME M SH 380 Ve-20:10:21 17:09:21 09:25:26 La Réunion
850 3952 TAILLIEZ CLEMENT M SH 381 Ve-20:10:25 17:09:25 09:25:30 La Réunion
851 4661 VIENNET NICOLAS M SH 382 Ve-20:10:33 17:09:33 09:25:38 France
852 4662 VERNEREY GWENAEL M SH 383 Ve-20:10:35 17:09:35 09:25:40 France
852 4841 CORRE ALAIN M M2H 91 Ve-20:10:35 17:09:35 09:25:40 La Réunion
854 4335 DESFOUR MICKAEL M SH 384 Ve-20:10:50 17:09:50 09:25:55 La Réunion
855 4015 PENIGAUD MANON F SF 99 Ve-20:11:18 17:10:18 09:26:23 La Réunion
855 4566 DELIN MAELLE F SF 99 Ve-20:11:18 17:10:18 09:26:23 La Réunion
857 3161 MACLE FREDERIC M M2H 92 Ve-20:11:20 17:10:20 09:26:25 France
858 3078 FISNE GERARD M M3H 16 Ve-20:11:28 17:10:28 09:26:33 France
859 3103 LEBON THOMAS M SH 385 Ve-20:11:49 17:10:49 09:26:54 La Réunion
860 3369 DYLIKOWSKI ROMAIN M SH 386 Ve-20:12:16 17:11:16 09:27:21 Maurice
861 3940 BARET GERALD M M1H 204 Ve-20:12:17 17:11:17 09:27:22 La Réunion
862 4152 MOAN STEPHANIE F M1F 41 Ve-20:12:27 17:11:27 09:27:32 La Réunion
863 4818 PARIS VINCENT M SH 387 Ve-20:12:42 17:11:42 09:27:47 France
864 3774 DELACROIX SONIA F SF 101 Ve-20:12:43 17:11:43 09:27:48 La Réunion
865 3510 AREKIOM ELSA F M1F 42 Ve-20:12:44 17:11:44 09:27:49 La Réunion
866 3464 TETIA SEBASTIEN M M1H 205 Ve-20:12:45 17:11:45 09:27:50 La Réunion
867 3444 CADIGNAN DENIS M M2H 93 Ve-20:12:46 17:11:46 09:27:51 La Réunion
868 4330 PARVEDY RICO M M2H 94 Ve-20:12:56 17:11:56 09:28:01 La Réunion
869 3076 SLOBODZIAN ARMELLE F M1F 43 Ve-20:12:58 17:11:58 09:28:03 France
870 4763 SEREIS CAROLINE F SF 102 Ve-20:13:00 17:12:00 09:28:05 La Réunion
871 3787 LAURESTANT YANNIS M M1H 206 Ve-20:13:07 17:12:07 09:28:12 La Réunion
871 3980 HOAREAU PATRICK M M1H 206 Ve-20:13:07 17:12:07 09:28:12 La Réunion
873 3733 RUBENS MICKAEL M SH 388 Ve-20:13:15 17:12:15 09:28:20 La Réunion
874 4413 PILLET STEPHANE M M1H 208 Ve-20:13:48 17:12:48 09:28:53 La Réunion
875 3359 MENEUX SEBASTIEN M SH 389 Ve-20:13:53 17:12:53 09:28:58 La Réunion
875 4751 CHEBAT JOFFREY M SH 389 Ve-20:13:53 17:12:53 09:28:58 La Réunion
877 3324 CHICOIX CHRISTOPHE M M1H 209 Ve-20:13:56 17:12:56 09:29:01 La Réunion
878 4748 MALLET CAROLE F SF 103 Ve-20:14:37 17:13:37 09:29:42 La Réunion
879 4300 CREUZET JEAN-CLAUDE M M2H 95 Ve-20:14:58 17:13:58 09:30:03 La Réunion
880 3747 JOHARANE DIDIER M SH 391 Ve-20:15:01 17:14:01 09:30:06 La Réunion
881 4484 TECHER LUDOVIC M SH 392 Ve-20:15:17 17:14:17 09:30:22 La Réunion
882 3409 PAYET CHARLES M SH 393 Ve-20:15:52 17:14:52 09:30:57 La Réunion
883 3560 LEBRUN VERONIQUE F SF 104 Ve-20:16:58 17:15:58 09:32:03 La Réunion
884 4210 LESTE KLEBERT M M2H 96 Ve-20:16:59 17:15:59 09:32:04 La Réunion
885 3593 BATTAIS STEPHANE M SH 394 Ve-20:17:05 17:16:05 09:32:10 La Réunion
886 4646 LADERVAL CHLOE F SF 105 Ve-20:17:11 17:16:11 09:32:16 La Réunion
887 3995 QUERTINIER ARNAUD M SH 395 Ve-20:18:02 17:17:02 09:33:07 La Réunion
888 3764 QUERTINIER ANNE-LAURE F M1F 44 Ve-20:18:03 17:17:03 09:33:08 Belgique
889 3519 RICKMOUNIE JACKY M M2H 97 Ve-20:18:04 17:17:04 09:33:09 La Réunion
890 3420 CEBIN PATRICK M M1H 210 Ve-20:18:41 17:17:41 09:33:46 La Réunion
891 3085 BERFEUIL SULLY M M1H 211 Ve-20:18:42 17:17:42 09:33:47 La Réunion
892 3572 LEVY VINCENT M M1H 212 Ve-20:19:11 17:18:11 09:34:16 La Réunion
893 3319 DESPRES FRANCK M M1H 213 Ve-20:20:27 17:19:27 09:35:32 France
894 3114 PATISSIER JOSELITO M M1H 214 Ve-20:21:50 17:20:50 09:36:55 La Réunion
894 4045 PAVIEL WILLY-JEAN M SH 396 Ve-20:21:50 17:20:50 09:36:55 La Réunion
896 3123 RABEUX AURELIEN M SH 397 Ve-20:22:12 17:21:12 09:37:17 La Réunion
897 4143 BOULY DAVID M SH 398 Ve-20:22:13 17:21:13 09:37:18 La Réunion
898 4094 BALMANN DIDIER M SH 399 Ve-20:22:28 17:21:28 09:37:33 La Réunion
899 4536 CADET PIERRE M SH 400 Ve-20:22:29 17:21:29 09:37:34 La Réunion
900 3795 MORAN PATRICK M M1H 215 Ve-20:22:39 17:21:39 09:37:44 La Réunion
901 3806 SAUTRON JEAN-JACQUES M M2H 98 Ve-20:23:18 17:22:18 09:38:23 La Réunion
902 4008 AQUILINA CLEMENT M SH 401 Ve-20:23:38 17:22:38 09:38:43 La Réunion
903 4017 GIMENEZ MARTINEZ ALBERTO M SH 402 Ve-20:24:07 17:23:07 09:39:12 La Réunion
904 3306 GOSSE JEREMY M SH 403 Ve-20:25:07 17:24:07 09:40:12 La Réunion
905 4014 DOBARIA WILSON M SH 404 Ve-20:25:22 17:24:22 09:40:27 La Réunion
906 4062 GRELAUD MARTIAL M SH 405 Ve-20:25:44 17:24:44 09:40:49 La Réunion
907 4696 SASSUS SERGE M M2H 99 Ve-20:25:48 17:24:48 09:40:53 France
908 3268 RIOLLET DOMINIQUE M M3H 17 Ve-20:25:49 17:24:49 09:40:54 La Réunion
908 4641 VAN HEEMS FREDERIC M M2H 100 Ve-20:25:49 17:24:49 09:40:54 France
910 4222 ISSIANGUE ROBERTO M M1H 216 Ve-20:27:25 17:26:25 09:42:30 La Réunion
911 3227 ALAGAPIN ROMAIN M SH 406 Ve-20:28:03 17:27:03 09:43:08 La Réunion
912 4744 TALIBART-PLANTE MAGALI F SF 106 Ve-20:28:08 17:27:08 09:43:13 La Réunion
913 3278 TALIBART ELSA F SF 107 Ve-20:28:09 17:27:09 09:43:14 La Réunion
914 4447 ESTHER FABRICE M SH 407 Ve-20:28:19 17:27:19 09:43:24 La Réunion
915 3736 ANCE MARIE-CECILE F SF 108 Ve-20:28:45 17:27:45 09:43:50 La Réunion
916 3521 JAUBERT CHRISTIAN M M3H 18 Ve-20:28:47 17:27:47 09:43:52 France
917 3820 BONNOTTE ROMAIN M SH 408 Ve-20:28:58 17:27:58 09:44:03 La Réunion
918 4105 GRUJON ANAELLE F SF 109 Ve-20:29:47 17:28:47 09:44:52 La Réunion
919 4097 CANTE MEGANE F SF 110 Ve-20:29:48 17:28:48 09:44:53 La Réunion
920 4312 GUNEY ALI M M1H 217 Ve-20:29:54 17:28:54 09:44:59 France
921 3075 NONNENMACHER MURIEL F SF 111 Ve-20:30:46 17:29:46 09:45:51 La Réunion
922 3228 ANGAMA PETCHY DANIEL M M1H 218 Ve-20:30:48 17:29:48 09:45:53 La Réunion
923 3370 ELLAYA DOMINIQUE-LAURENT M SH 409 Ve-20:31:37 17:30:37 09:46:42 La Réunion
924 3100 MARIN ADRIEN M SH 410 Ve-20:31:49 17:30:49 09:46:54 France
925 4166 HERIAU SYLVAIN M M1H 219 Ve-20:32:48 17:31:48 09:47:53 France
926 3436 VAMOUR SIXTINE F SF 112 Ve-20:33:15 17:32:15 09:48:20 France
927 3565 VAMOUR ALAIN M M2H 101 Ve-20:33:24 17:32:24 09:48:29 France
928 4203 DOUANIER JEAN-THIERRY M M1H 220 Ve-20:33:40 17:32:40 09:48:45 La Réunion
929 3119 DENIS MATTHIAS M SH 411 Ve-20:33:42 17:32:42 09:48:47 La Réunion
929 3295 TATEL DAVID M SH 411 Ve-20:33:42 17:32:42 09:48:47 La Réunion
929 3579 PAYET CLEMENT M M3H 19 Ve-20:33:42 17:32:42 09:48:47 La Réunion
932 3457 POILBOUC SYLVAIN M SH 413 Ve-20:33:59 17:32:59 09:49:04 La Réunion
933 4475 ALIX-ROBERT ESTELLE F SF 113 Ve-20:34:12 17:33:12 09:49:17 France
934 4668 MARCHAIS ROMAIN M SH 414 Ve-20:35:51 17:34:51 09:50:56 La Réunion
935 3208 GUEZELLO JEROME M M1H 221 Ve-20:35:53 17:34:53 09:50:58 La Réunion
935 4215 RICHARD FANNY F M1F 45 Ve-20:35:53 17:34:53 09:50:58 La Réunion
937 4217 TAILLEBOIS AUDE F M1F 46 Ve-20:35:54 17:34:54 09:50:59 La Réunion
938 3115 PAYET SEBASTIEN M SH 415 Ve-20:36:33 17:35:33 09:51:38 La Réunion
939 4058 BOIVIN SAMUEL M SH 416 Ve-20:36:45 17:35:45 09:51:50 La Réunion
940 3062 CATHELIN FRANCK M M2H 102 Ve-20:36:46 17:35:46 09:51:51 La Réunion
941 3757 PAUSE CLEMENT M SH 417 Ve-20:39:32 17:38:32 09:54:37 La Réunion
942 3581 JOLY ROMAIN M SH 418 Ve-20:41:17 17:40:17 09:56:22 France
943 3404 GENTAIS LUCIE F SF 114 Ve-20:41:20 17:40:20 09:56:25 France
944 3665 JOTTREAU ELODIE F SF 115 Ve-20:41:22 17:40:22 09:56:27 La Réunion
944 4792 GESQUIERE SOLENE F SF 115 Ve-20:41:22 17:40:22 09:56:27 La Réunion
946 3326 DIDIER REGINE F M2F 15 Ve-20:41:25 17:40:25 09:56:30 France
947 4100 DEROUET AUDREY F SF 117 Ve-20:42:02 17:41:02 09:57:07 La Réunion
948 3301 FOLIO FABRICE M M1H 222 Ve-20:42:06 17:41:06 09:57:11 La Réunion
948 3701 RALITE ALIZEE F SF 118 Ve-20:42:06 17:41:06 09:57:11 La Réunion
948 3841 DESLANDRES THIBAUD M SH 419 Ve-20:42:06 17:41:06 09:57:11 La Réunion
951 3594 BEDIER ALEXANDRE M SH 420 Ve-20:42:07 17:41:07 09:57:12 La Réunion
952 3475 HOAREAU NICOLAS-ALEXANDRE M SH 421 Ve-20:42:10 17:41:10 09:57:15 La Réunion
953 4150 HOARAU JEAN-FRANCOIS M M1H 223 Ve-20:42:12 17:41:12 09:57:17 La Réunion
954 3122 DIJOUX JEAN-PAUL-BENOIT M M3H 20 Ve-20:42:13 17:41:13 09:57:18 La Réunion
954 3137 LARROZE ARNAUD M M1H 224 Ve-20:42:13 17:41:13 09:57:18 France
954 3839 GRONDIN BRUNO M M1H 224 Ve-20:42:13 17:41:13 09:57:18 La Réunion
957 3915 ESPARON JOHNY M M1H 226 Ve-20:42:18 17:41:18 09:57:23 La Réunion
958 3700 RAGE ANTOINE M SH 422 Ve-20:42:26 17:41:26 09:57:31 La Réunion
959 4285 LARAVINE WILLY M M1H 227 Ve-20:42:36 17:41:36 09:57:41 La Réunion
960 3472 RUTKOWSKI ROMAIN M SH 423 Ve-20:42:55 17:41:55 09:58:00 La Réunion
961 3456 ARAUX MICHEL M M3H 21 Ve-20:42:56 17:41:56 09:58:01 La Réunion
962 4374 VIRASSAMY JULES M M2H 103 Ve-20:42:58 17:41:58 09:58:03 La Réunion
963 3798 PAVAYE PASCAL M M1H 228 Ve-20:43:08 17:42:08 09:58:13 La Réunion
963 4532 FERRERE LUDOVIC M SH 424 Ve-20:43:08 17:42:08 09:58:13 La Réunion
965 3655 GUELON FERNAND M M1H 229 Ve-20:43:12 17:42:12 09:58:17 La Réunion
966 4393 BRAC CORALIE F SF 119 Ve-20:43:13 17:42:13 09:58:18 La Réunion
967 4417 HINGANT MARTIN M SH 425 Ve-20:43:14 17:42:14 09:58:19 La Réunion
968 3561 GRONDIN LOIC M SH 426 Ve-20:43:16 17:42:16 09:58:21 La Réunion
969 3694 PAYET JEAN-VINCENT M SH 427 Ve-20:43:17 17:42:17 09:58:22 La Réunion
970 3834 JEAN ALEXANDRE M SH 428 Ve-20:43:24 17:42:24 09:58:29 France
971 3910 PAILLISSON AURELIEN M SH 429 Ve-20:43:25 17:42:25 09:58:30 France
972 3246 NADAL JACQUES M M2H 104 Ve-20:43:43 17:42:43 09:58:48 La Réunion
973 4378 HERBE SYLVAIN M M2H 105 Ve-20:43:45 17:42:45 09:58:50 La Réunion
974 3271 BOURGEOIS CLAUDE M M4H 1 Ve-20:43:54 17:42:54 09:58:59 France
975 3783 GEORGEAIS NICOLAS M M1H 230 Ve-20:44:11 17:43:11 09:59:16 La Réunion
976 4218 TOISON SEBASTIEN M SH 430 Ve-20:44:15 17:43:15 09:59:20 France
977 4175 CASSAM IBRAHIM ABDOULLAH M SH 431 Ve-20:44:36 17:43:36 09:59:41 La Réunion
978 3203 LOUISE JEAN-PHILIP M SH 432 Ve-20:44:53 17:43:53 09:59:58 Maurice
979 3801 RAZAKASON CHRISTIAN M SH 433 Ve-20:44:57 17:43:57 10:00:02 La Réunion
980 3679 LIONI RAYMOND M M3H 22 Ve-20:44:58 17:43:58 10:00:03 La Réunion
981 3185 HERVIO JULIEN M SH 434 Ve-20:45:12 17:44:12 10:00:17 France
982 4790 SERRET BENOIT M SH 435 Ve-20:45:23 17:44:23 10:00:28 France
983 4518 DELON ANAIS F SF 120 Ve-20:47:16 17:46:16 10:02:21 France
984 4193 GRONDIN ALAIN M M2H 106 Ve-20:47:41 17:46:41 10:02:46 La Réunion
985 3008 ADAM ALICE F SF 121 Ve-20:47:56 17:46:56 10:03:01 La Réunion
986 3551 ALLIBE CHLOE F SF 122 Ve-20:48:11 17:47:11 10:03:16 La Réunion
987 3397 PAYET LEBOURGES NICOLAS M M1H 231 Ve-20:48:17 17:47:17 10:03:22 La Réunion
987 3858 BALEINIER JEAN-MATHIEU M SH 436 Ve-20:48:17 17:47:17 10:03:22 La Réunion
989 3465 DUBARD FLORENT M SH 437 Ve-20:48:18 17:47:18 10:03:23 La Réunion
989 3963 VIRASSAMY FREDERIC M M1H 232 Ve-20:48:18 17:47:18 10:03:23 La Réunion
989 4003 VIRASSAMY LYNDA F M1F 47 Ve-20:48:18 17:47:18 10:03:23 La Réunion
992 4644 SINIVASSIN JEAN-GERARD-CHRISTIAN M M2H 107 Ve-20:49:16 17:48:16 10:04:21 La Réunion
993 3471 GALLOIS ETIENNE M SH 438 Ve-20:49:27 17:48:27 10:04:32 La Réunion
993 3671 LANDEAU CHARLY M SH 438 Ve-20:49:27 17:48:27 10:04:32 La Réunion
995 3199 SINAPAN YANN M SH 440 Ve-20:49:35 17:48:35 10:04:40 France
996 4066 LOUIS GUILLAUME M M1H 233 Ve-20:49:38 17:48:38 10:04:43 La Réunion
997 4026 BEGUE GERALD-JOHNNY M M2H 108 Ve-20:52:00 17:51:00 10:07:05 La Réunion
998 4742 AURORE PATTYN F M1F 48 Ve-20:52:46 17:51:46 10:07:51 France
999 3260 LEBON STEPHANE M M1H 234 Ve-20:52:49 17:51:49 10:07:54 La Réunion
1000 3084 WONG NG FRANKIE M M1H 235 Ve-20:54:16 17:53:16 10:09:21 Maurice
1001 3222 CHAN CHU CHEONG TAT-THONG M M1H 236 Ve-20:54:17 17:53:17 10:09:22 Maurice
1002 3614 CAZAUBON VINCENT M M1H 237 Ve-20:55:17 17:54:17 10:10:22 La Réunion
1003 3061 ANZOULLY JEAN-LUC M M1H 238 Ve-20:55:50 17:54:50 10:10:55 La Réunion
1004 3731 DALLEAU ALEXANDRE M SH 441 Ve-20:55:57 17:54:57 10:11:02 La Réunion
1005 3152 DUPUIS FABRICE M M2H 109 Ve-20:55:58 17:54:58 10:11:03 France
1006 3343 ALI DJAE MGOMRI M M2H 110 Ve-20:56:00 17:55:00 10:11:05 Mayotte
1007 3019 NOUAIL FRANCOISE F M2F 16 Ve-20:56:35 17:55:35 10:11:40 France
1007 3799 PAYET CHRISTOPHE M SH 442 Ve-20:56:35 17:55:35 10:11:40 La Réunion
1009 3356 FAISANDIER ALBAN M SH 443 Ve-20:56:36 17:55:36 10:11:41 La Réunion
1010 4539 GOVINDIN LAURENT M SH 444 Ve-20:56:37 17:55:37 10:11:42 La Réunion
1011 4523 HUMBLOT JOHNATAN M SH 445 Ve-20:57:08 17:56:08 10:12:13 La Réunion
1012 3323 DELORGE FIONA F SF 123 Ve-20:57:16 17:56:16 10:12:21 La Réunion
1013 3904 DORLA ALIX M M2H 111 Ve-20:57:19 17:56:19 10:12:24 La Réunion
1014 3398 RATTALINO LILIAN M SH 446 Ve-20:57:53 17:56:53 10:12:58 France
1015 3265 ROUVE HELENE F M1F 49 Ve-20:57:55 17:56:55 10:13:00 France
1016 4051 MENDES DA SILVA EMILIE F SF 124 Ve-20:57:58 17:56:58 10:13:03 La Réunion
1017 3014 KORTBI ALI M SH 447 Ve-20:58:03 17:57:03 10:13:08 La Réunion
1018 4188 ROOSSINK JAN-WILLEM M SH 448 Ve-20:58:04 17:57:04 10:13:09 La Réunion
1019 4194 CHASSEBOEUF LORIS M SH 449 Ve-20:58:06 17:57:06 10:13:11 La Réunion
1020 4196 TIJOU PAULINE F SF 125 Ve-20:58:07 17:57:07 10:13:12 La Réunion
1021 3491 MARTY JULIEN M SH 450 Ve-20:58:08 17:57:08 10:13:13 La Réunion
1022 3966 GARDEBIEN GUY-JOCELYN M M2H 112 Ve-20:58:09 17:57:09 10:13:14 La Réunion
1023 4783 HOARAU CEDRIC M SH 451 Ve-20:58:10 17:57:10 10:13:15 La Réunion
1024 3631 FAUCONNET NOUAILLE DEGORCE JEAN M SH 452 Ve-20:58:11 17:57:11 10:13:16 La Réunion
1024 4675 MARIANNE LAURENCE F SF 126 Ve-20:58:11 17:57:11 10:13:16 La Réunion
1026 3025 HOSTETTLER EVA F SF 127 Ve-20:58:13 17:57:13 10:13:18 France
1027 3361 TARMIDHI HECHAT F SF 128 Ve-20:58:19 17:57:19 10:13:24 La Réunion
1028 3357 GRONDIN ELODIE F SF 129 Ve-20:58:27 17:57:27 10:13:32 La Réunion
1029 3958 PEROT SAMUEL M M1H 239 Ve-20:58:29 17:57:29 10:13:34 La Réunion
1030 4178 MINATCHY JEAN-FRANCOIS M SH 453 Ve-20:58:30 17:57:30 10:13:35 La Réunion
1031 3413 SAIDI MICHEL M M2H 113 Ve-20:58:33 17:57:33 10:13:38 La Réunion
1032 3101 AUDEBERT JEAN-MARC M M3H 23 Ve-20:58:41 17:57:41 10:13:46 France
1033 4759 LEGER DELPHINE F M1F 50 Ve-20:59:21 17:58:21 10:14:26 La Réunion
1034 3178 MARTINS FERNANDO M M3H 24 Ve-20:59:26 17:58:26 10:14:31 Portugal
1035 3603 CLEMENT PASCAL M M3H 25 Ve-20:59:33 17:58:33 10:14:38 France
1036 3097 PAYET BERNARD M M1H 240 Ve-21:00:37 17:59:37 10:15:42 La Réunion
1037 4724 FILAK SEBASTIEN M M1H 241 Ve-21:00:42 17:59:42 10:15:47 La Réunion
1038 3657 HAMON YANN M SH 454 Ve-21:00:50 17:59:50 10:15:55 La Réunion
1039 3120 STIDLER ANNABELLE F M1F 51 Ve-21:01:03 18:00:03 10:16:08 La Réunion
1040 3195 FONTAINE OLIVIER M M1H 242 Ve-21:02:32 18:01:32 10:17:37 La Réunion
1041 3018 MOUSTAPHA SAYED YOUSHA M SH 455 Ve-21:02:48 18:01:48 10:17:53 La Réunion
1042 4548 FOLIO JEREMY-TEDDY M SH 456 Ve-21:03:16 18:02:16 10:18:21 La Réunion
1043 4638 MICHEL ELISE F SF 130 Ve-21:04:36 18:03:36 10:19:41 La Réunion
1044 3771 CAMARET LAURIANE F SF 131 Ve-21:04:47 18:03:47 10:19:52 France
1045 4495 ANTONIO DORIS F M2F 17 Ve-21:05:27 18:04:27 10:20:32 Maurice
1046 4305 ANTONIO LINDSAY M M3H 26 Ve-21:05:28 18:04:28 10:20:33 Maurice
1047 3750 PADRE ALAIN M M1H 243 Ve-21:05:32 18:04:32 10:20:37 La Réunion
1048 4795 SAGELOLY GWENAELLE F M1F 52 Ve-21:05:36 18:04:36 10:20:41 La Réunion
1049 3221 PEREZ ALINEDA F M2F 18 Ve-21:06:42 18:05:42 10:21:47 La Réunion
1050 4136 LAPIERRE FLORENCE F SF 132 Ve-21:06:44 18:05:44 10:21:49 La Réunion
1051 4223 GUILLEMOT CHRISTOPHE M M1H 244 Ve-21:06:46 18:05:46 10:21:51 La Réunion
1052 3460 TILLY RONAN M M2H 114 Ve-21:06:47 18:05:47 10:21:52 France
1052 3877 VERON CYNTHIA F SF 133 Ve-21:06:47 18:05:47 10:21:52 La Réunion
1054 3531 PAYET JEAN-CHRISTOPHE M M2H 115 Ve-21:06:55 18:05:55 10:22:00 La Réunion
1055 3676 LEROY MATHIEU M SH 457 Ve-21:06:57 18:05:57 10:22:02 France
1056 3682 CADET OLIVIER M M1H 245 Ve-21:07:04 18:06:04 10:22:09 La Réunion
1057 3335 SIEW THIEN SENG NICOLAS M M1H 246 Ve-21:07:20 18:06:20 10:22:25 La Réunion
1057 3664 JOST JEROME M M3H 27 Ve-21:07:20 18:06:20 10:22:25 France
1059 3768 BILLOT SEBASTIEN M M1H 247 Ve-21:07:22 18:06:22 10:22:27 La Réunion
1059 4849 BORNOT MANUEL M M2H 116 Ve-21:07:22 18:06:22 10:22:27 La Réunion
1061 3835 BEMAT MOHAMED M M1H 248 Ve-21:07:27 18:06:27 10:22:32 La Réunion
1062 3251 BANOR JEAN-DIDIER M M1H 249 Ve-21:07:30 18:06:30 10:22:35 La Réunion
1063 3332 DEGIOANNINI MATTHIEU M SH 458 Ve-21:07:48 18:06:48 10:22:53 La Réunion
1064 3879 JAVEGNY JEAN-SIDONY M SH 459 Ve-21:07:58 18:06:58 10:23:03 La Réunion
1065 4057 BERQUEZ CORENTIN M SH 460 Ve-21:09:37 18:08:37 10:24:42 France
1066 3740 BELLON MARIE-ANGE F M3F 3 Ve-21:11:25 18:10:25 10:26:30 La Réunion
1067 3863 POUMAILLOUX AGNES F SF 134 Ve-21:11:38 18:10:38 10:26:43 La Réunion
1068 3497 LOUISIN JUDE M M1H 250 Ve-21:11:40 18:10:40 10:26:45 La Réunion
1069 3143 VANWALSCAPPEL MARIE-ODETTE F M1F 53 Ve-21:11:47 18:10:47 10:26:52 La Réunion
1070 4616 GASTE ISABELLE F M2F 19 Ve-21:11:53 18:10:53 10:26:58 France
1071 3099 GACHON JEAN-CLAIR M M1H 251 Ve-21:12:01 18:11:01 10:27:06 France
1072 3045 TAMPIGNY-DUREL CHRISTIAN M M2H 117 Ve-21:12:36 18:11:36 10:27:41 France
1073 3813 VERBARD MICHELLE F M2F 20 Ve-21:12:43 18:11:43 10:27:48 La Réunion
1074 3732 VERON MATHILDE F M1F 54 Ve-21:13:05 18:12:05 10:28:10 La Réunion
1075 3290 LA FATA ANAEL M SH 461 Ve-21:13:28 18:12:28 10:28:33 La Réunion
1076 3646 GERMAIN CORINNE F M2F 21 Ve-21:13:31 18:12:31 10:28:36 France
1077 3936 LIABEUF PATRICE M M3H 28 Ve-21:13:41 18:12:41 10:28:46 La Réunion
1078 4846 MOUROUVIN GAEL M SH 462 Ve-21:13:50 18:12:50 10:28:55 La Réunion
1079 3171 VARNET LAURENCE F SF 135 Ve-21:14:05 18:13:05 10:29:10 France
1080 3093 TAUPIN PHILIPPE M M2H 118 Ve-21:15:14 18:14:14 10:30:19 La Réunion
1081 4682 ESTEVE JEAN-BAPTISTE M M1H 252 Ve-21:15:16 18:14:16 10:30:21 France
1082 3481 FOUCHET PHILIPPE M M2H 119 Ve-21:15:19 18:14:19 10:30:24 La Réunion
1083 3167 KIM THOMAS M SH 463 Ve-21:15:27 18:14:27 10:30:32 France
1084 3965 HELION GUILLAUME M SH 464 Ve-21:15:59 18:14:59 10:31:04 La Réunion
1085 3947 LEONARD ALEXIS M SH 465 Ve-21:17:09 18:16:09 10:32:14 France
1086 3473 DESVERGEZ ARNAUD M SH 466 Ve-21:17:17 18:16:17 10:32:22 La Réunion
1086 4258 GELLENS ROMAIN M SH 466 Ve-21:17:17 18:16:17 10:32:22 France
1088 4815 JOSSE JEAN-CHARLES M M2H 120 Ve-21:17:23 18:16:23 10:32:28 France
1089 3430 GLAVIER GREGORY M M1H 253 Ve-21:17:33 18:16:33 10:32:38 La Réunion
1090 4211 LIBRIZZI MASSIMO M SH 468 Ve-21:18:06 18:17:06 10:33:11 La Réunion
1091 3390 MARTINOT SEGOLENE F SF 136 Ve-21:18:07 18:17:07 10:33:12 France
1092 4524 MARCELINE JEROME M SH 469 Ve-21:18:12 18:17:12 10:33:17 La Réunion
1093 3802 RENOIRE LOIC M SH 470 Ve-21:18:18 18:17:18 10:33:23 France
1094 3334 SEUBILLE RENAN M SH 471 Ve-21:18:25 18:17:25 10:33:30 La Réunion
1095 4257 THIONG-TOYE BERTRAND M SH 472 Ve-21:18:47 18:17:47 10:33:52 La Réunion
1096 4011 CAVILLOT MICHELLE F SF 137 Ve-21:18:48 18:17:48 10:33:53 La Réunion
1097 4576 BOLZINGER JEANNE F SF 138 Ve-21:18:49 18:17:49 10:33:54 France
1097 4710 KLEE PAUL M SH 473 Ve-21:18:49 18:17:49 10:33:54 France
1099 4699 CLUZEL JONATHAN M SH 474 Ve-21:18:50 18:17:50 10:33:55 La Réunion
1100 3423 BOURDET EMMANUEL M SH 475 Ve-21:18:51 18:17:51 10:33:56 La Réunion
1101 3578 BAK OLIVIA F SF 139 Ve-21:18:53 18:17:53 10:33:58 La Réunion
1101 4777 GIRARD HELOISE F SF 139 Ve-21:18:53 18:17:53 10:33:58 La Réunion
1103 3867 TARTAROLI XAVIER M SH 476 Ve-21:18:55 18:17:55 10:34:00 La Réunion
1104 4322 TURPIN JISMY M M1H 254 Ve-21:18:56 18:17:56 10:34:01 La Réunion
1105 3652 GOUSSU CEDRIC M SH 477 Ve-21:18:57 18:17:57 10:34:02 La Réunion
1105 4362 JARNOT CEDRIC M M1H 255 Ve-21:18:57 18:17:57 10:34:02 La Réunion
1107 4149 GRONDIN LUCIANO M M1H 256 Ve-21:18:59 18:17:59 10:34:04 La Réunion
1107 4282 DOMPY MAEVA F SF 141 Ve-21:18:59 18:17:59 10:34:04 La Réunion
1107 4632 DILIS ERWANN M SH 478 Ve-21:18:59 18:17:59 10:34:04 La Réunion
1110 3566 CHARPENTIER JEAN-PAUL M M3H 29 Ve-21:19:00 18:18:00 10:34:05 France
1110 3685 HOARAU YANN-ERIC M SH 479 Ve-21:19:00 18:18:00 10:34:05 La Réunion
1110 4541 GRONDIN GUY-NOEL M M2H 121 Ve-21:19:00 18:18:00 10:34:05 La Réunion
1113 3821 GONTHIER BERTRAND M SH 480 Ve-21:19:02 18:18:02 10:34:07 La Réunion
1114 4182 PERRAULT BORIS M SH 481 Ve-21:19:03 18:18:03 10:34:08 La Réunion
1114 4278 TECHER GILLES-ALIX M SH 481 Ve-21:19:03 18:18:03 10:34:08 La Réunion
1114 4603 BOUILLY THOMAS M SH 481 Ve-21:19:03 18:18:03 10:34:08 La Réunion
1117 4133 GEURTS MARIEKE F SF 142 Ve-21:19:04 18:18:04 10:34:09 Kenya
1117 4266 VOISIN ALEXIS M SH 484 Ve-21:19:04 18:18:04 10:34:09 Mayotte
1119 4288 CUVELIER FREDERIC M M1H 257 Ve-21:19:52 18:18:52 10:34:57 La Réunion
1120 3512 LAURET CHARLES M SH 485 Ve-21:19:55 18:18:55 10:35:00 La Réunion
1121 4562 BORNET PIERRE M M2H 122 Ve-21:20:29 18:19:29 10:35:34 Suisse
1122 4224 DUPREZ GHISLAIN M SH 486 Ve-21:20:44 18:19:44 10:35:49 La Réunion
1123 3548 LINCAR RICHEVILLE M M2H 123 Ve-21:20:58 18:19:58 10:36:03 La Réunion
1124 4064 LARDE YANN M SH 487 Ve-21:21:00 18:20:00 10:36:05 La Réunion
1125 3564 JOY-SOLER PAMELA F M2F 22 Ve-21:21:24 18:20:24 10:36:29 France
1126 3621 DALLEAU JEAN-MICHEL M SH 488 Ve-21:21:28 18:20:28 10:36:33 La Réunion
1127 3668 KEE-SOON BELHUERNE JESSY F M2F 23 Ve-21:21:40 18:20:40 10:36:45 La Réunion
1128 3923 COLLAS HERVE M M1H 258 Ve-21:22:06 18:21:06 10:37:11 France
1128 4236 RAOULT MARC-ANTOINE M SH 489 Ve-21:22:06 18:21:06 10:37:11 La Réunion
1130 3001 FOUCHANGE FREDERIC M M1H 259 Ve-21:22:13 18:21:13 10:37:18 La Réunion
1131 3202 GRANJON JEAN-PAUL M M3H 30 Ve-21:22:18 18:21:18 10:37:23 France
1132 3663 HOAREAU ROLAND M M3H 31 Ve-21:22:24 18:21:24 10:37:29 La Réunion
1133 3109 BERNARD DEBORAH F SF 143 Ve-21:24:46 18:23:46 10:39:51 La Réunion
1134 4660 THEODOLY INGRID F SF 144 Ve-21:25:52 18:24:52 10:40:57 La Réunion
1135 3959 GARDEBIEN CLEMENT-EXPEDIT M SH 490 Ve-21:26:51 18:25:51 10:41:56 La Réunion
1136 3402 GRAND ROMAIN M SH 491 Ve-21:27:11 18:26:11 10:42:16 La Réunion
1137 3247 PAYET FABIEN M SH 492 Ve-21:28:07 18:27:07 10:43:12 La Réunion
1138 3451 PERON ADRIEN M SH 493 Ve-21:28:44 18:27:44 10:43:49 La Réunion
1139 3855 PAYET KELLY F M1F 55 Ve-21:29:17 18:28:17 10:44:22 France
1140 4304 PARFAIT MAXENCE M M1H 260 Ve-21:29:19 18:28:19 10:44:24 France
1140 4494 BROCHARD PHILIPPE M M1H 260 Ve-21:29:19 18:28:19 10:44:24 France
1142 4412 GUILLON YOANN M SH 494 Ve-21:29:20 18:28:20 10:44:25 La Réunion
1143 4520 MANGARON PATRICK M M1H 262 Ve-21:29:47 18:28:47 10:44:52 La Réunion
1144 4158 DEMOULIN LAURENT M SH 495 Ve-21:29:51 18:28:51 10:44:56 France
1145 4643 BASQUE JIMMY M M1H 263 Ve-21:30:40 18:29:40 10:45:45 La Réunion
1146 4023 LASSELIN CAROLINE F SF 145 Ve-21:33:09 18:32:09 10:48:14 La Réunion
1147 4509 GRUCHET KELLY F M1F 56 Ve-21:33:12 18:32:12 10:48:17 La Réunion
1148 3082 BILLAUD GILBERTE F M2F 24 Ve-21:34:35 18:33:35 10:49:40 La Réunion
1149 3812 VANGHELLE MARIE F SF 146 Ve-21:38:17 18:37:17 10:53:22 La Réunion
1150 3517 FRANCOISE MATTHIEU M SH 496 Ve-21:41:40 18:40:40 10:56:45 La Réunion
1151 4359 THAZAR HUGUES M M3H 32 Ve-21:42:09 18:41:09 10:57:14 La Réunion
1152 4226 DASSE FLORENCE F M2F 25 Ve-21:49:40 18:48:40 11:04:45 France
1153 4109 TOUCOUERE JULIE F SF 147 Ve-21:50:10 18:49:10 11:05:15 La Réunion
1154 4664 FONTAINE CAROLINE F SF 148 Ve-21:50:13 18:49:13 11:05:18 La Réunion
1155 3582 DURR SEBASTIEN M M1H 264 Ve-21:56:51 18:55:51 11:11:56 France
1156 4036 MAUNIER CATHERINE F M1F 57 Ve-21:58:46 18:57:46 11:13:51 La Réunion
1157 3244 FIEVET FRANCK M M2H 124 Ve-22:00:18 18:59:18 11:15:23 La Réunion
1158 4803 ETHEVE JEAN-FABRICE M M2H 125 Ve-22:04:36 19:03:36 11:19:41 La Réunion
1159 4095 BLANC QUENTIN M SH 497 Ve-22:14:28 19:13:28 11:29:33 La Réunion
1160 4081 HUMMEL ALEXIS M M1H 265 Ve-23:24:19 20:23:19 12:39:24 La Réunion


Poster un Commentaire

avatar
Free Dom
WordPress Video Lightbox